PWSweather.com
Personal Weather Stations
Station Observations
DL5ARK
SonnebergDE

SonnebergDE

Lat: 50.34904861, Lon: 11.18112087

Elevation: 1214

Station Type: Selfmade

http://www.sumbarg.de

High Low Average
Temperature 50.3°F10.2°C 37.5°F3.1°C 42.7°F5.9°C
Dew Point 54.6°F12.6°C 41.8°F5.4°C 46.7°F8.2°C
Winds 10.1 mph 16.3 kmh Calm Calm 1.0 mph SW1.6 kmh SW
Wind Gusts 10.1 mph16.3 kmh -- 1.0 mph1.6 kmh
Humidity 96% 90% 93%
Pressure 29.84 in1010.5 mb 29.53 in1000.0 mb -
Precipitation 0.84 in21.3 mm - -
Hour Temp Dew Point Humidity Winds Wind Gusts Pressure Precip Precip Rate Daily Precip Total
12:00 AM 37.5°F3.1°C 41.8°F5.4°C 91% Calm Calm -- 29.84 in1010.5 mb 0.00 in0.0 mm 0.00 in0.0 mm 0.00 in0.0 mm
12:03 AM 37.7°F3.2°C 41.8°F5.4°C 90% Calm Calm -- 29.84 in1010.5 mb 0.00 in0.0 mm 0.00 in0.0 mm 0.00 in0.0 mm
12:06 AM 37.9°F3.3°C 42.1°F5.6°C 91% Calm Calm -- 29.84 in1010.5 mb 0.00 in0.0 mm 0.00 in0.0 mm 0.00 in0.0 mm
12:09 AM 38.0°F3.3°C 42.4°F5.8°C 92% Calm Calm -- 29.84 in1010.5 mb 0.00 in0.0 mm 0.00 in0.0 mm 0.00 in0.0 mm
12:12 AM 38.1°F3.4°C 42.6°F5.9°C 92% 1.9 mph SE3.1 kmh SE 2.0 mph3.2 kmh 29.83 in1010.2 mb 0.00 in0.0 mm 0.00 in0.0 mm 0.00 in0.0 mm
12:15 AM 38.1°F3.4°C 42.4°F5.8°C 92% 1.2 mph SE1.9 kmh SE 1.2 mph1.9 kmh 29.84 in1010.5 mb 0.00 in0.0 mm 0.00 in0.0 mm 0.00 in0.0 mm
12:18 AM 38.1°F3.4°C 42.3°F5.7°C 92% 2.3 mph SE3.7 kmh SE 2.3 mph3.7 kmh 29.83 in1010.2 mb 0.00 in0.0 mm 0.00 in0.0 mm 0.00 in0.0 mm
12:21 AM 38.1°F3.4°C 42.4°F5.8°C 92% 1.6 mph SE2.6 kmh SE 1.6 mph2.6 kmh 29.82 in1009.8 mb 0.00 in0.0 mm 0.00 in0.0 mm 0.00 in0.0 mm
12:24 AM 38.1°F3.4°C 42.4°F5.8°C 92% Calm Calm -- 29.82 in1009.8 mb 0.00 in0.0 mm 0.00 in0.0 mm 0.00 in0.0 mm
12:27 AM 38.1°F3.4°C 42.2°F5.7°C 92% Calm Calm -- 29.82 in1009.8 mb 0.00 in0.0 mm 0.00 in0.0 mm 0.00 in0.0 mm
12:30 AM 38.0°F3.3°C 42.3°F5.7°C 92% Calm Calm -- 29.82 in1009.8 mb 0.00 in0.0 mm 0.00 in0.0 mm 0.00 in0.0 mm
12:33 AM 38.0°F3.3°C 42.2°F5.7°C 92% Calm Calm -- 29.82 in1009.8 mb 0.00 in0.0 mm 0.00 in0.0 mm 0.00 in0.0 mm
12:36 AM 38.1°F3.4°C 42.2°F5.7°C 92% Calm Calm -- 29.81 in1009.5 mb 0.00 in0.0 mm 0.00 in0.0 mm 0.00 in0.0 mm
12:42 AM 38.1°F3.4°C 42.6°F5.9°C 92% 0.8 mph SSE1.3 kmh SSE 0.8 mph1.3 kmh 29.81 in1009.5 mb 0.00 in0.0 mm 0.00 in0.0 mm 0.00 in0.0 mm
12:45 AM 38.1°F3.4°C 42.2°F5.7°C 91% Calm Calm -- 29.81 in1009.5 mb 0.00 in0.0 mm 0.00 in0.0 mm 0.00 in0.0 mm
12:48 AM 38.1°F3.4°C 42.2°F5.7°C 92% 1.2 mph SSE1.9 kmh SSE 1.2 mph1.9 kmh 29.81 in1009.5 mb 0.00 in0.0 mm 0.00 in0.0 mm 0.00 in0.0 mm
12:51 AM 38.1°F3.4°C 42.3°F5.7°C 92% 1.6 mph SSE2.6 kmh SSE 1.6 mph2.6 kmh 29.81 in1009.5 mb 0.00 in0.0 mm 0.00 in0.0 mm 0.00 in0.0 mm
12:54 AM 38.1°F3.4°C 42.2°F5.7°C 92% 2.0 mph S3.2 kmh S 2.0 mph3.2 kmh 29.81 in1009.5 mb 0.00 in0.0 mm 0.00 in0.0 mm 0.00 in0.0 mm
12:57 AM 38.2°F3.4°C 42.3°F5.7°C 92% 2.0 mph SSE3.2 kmh SSE 2.0 mph3.2 kmh 29.81 in1009.5 mb 0.00 in0.0 mm 0.00 in0.0 mm 0.00 in0.0 mm
01:00 AM 38.1°F3.4°C 42.0°F5.6°C 91% 0.8 mph SSW1.3 kmh SSW 0.8 mph1.3 kmh 29.81 in1009.5 mb 0.00 in0.0 mm 0.00 in0.0 mm 0.00 in0.0 mm
01:03 AM 38.1°F3.4°C 42.4°F5.8°C 92% Calm Calm -- 29.81 in1009.5 mb 0.00 in0.0 mm 0.00 in0.0 mm 0.00 in0.0 mm
01:06 AM 38.0°F3.3°C 42.2°F5.7°C 92% Calm Calm -- 29.80 in1009.1 mb 0.00 in0.0 mm 0.00 in0.0 mm 0.00 in0.0 mm
01:12 AM 38.0°F3.3°C 42.2°F5.7°C 92% 0.8 mph NNW1.3 kmh NNW 0.8 mph1.3 kmh 29.80 in1009.1 mb 0.00 in0.0 mm 0.00 in0.0 mm 0.00 in0.0 mm
01:15 AM 38.0°F3.3°C 42.4°F5.8°C 92% 0.8 mph SE1.3 kmh SE 0.8 mph1.3 kmh 29.80 in1009.1 mb 0.00 in0.0 mm 0.00 in0.0 mm 0.00 in0.0 mm
01:18 AM 38.0°F3.3°C 42.4°F5.8°C 92% 1.2 mph NNW1.9 kmh NNW 1.2 mph1.9 kmh 29.80 in1009.1 mb 0.00 in0.0 mm 0.00 in0.0 mm 0.00 in0.0 mm
01:21 AM 38.0°F3.3°C 42.1°F5.6°C 91% 0.8 mph SE1.3 kmh SE 0.8 mph1.3 kmh 29.79 in1008.8 mb 0.00 in0.0 mm 0.00 in0.0 mm 0.00 in0.0 mm
01:24 AM 38.0°F3.3°C 42.2°F5.7°C 92% 1.6 mph SE2.6 kmh SE 1.6 mph2.6 kmh 29.79 in1008.8 mb 0.00 in0.0 mm 0.00 in0.0 mm 0.00 in0.0 mm
01:27 AM 38.0°F3.3°C 42.2°F5.7°C 92% 0.8 mph SE1.3 kmh SE 0.8 mph1.3 kmh 29.79 in1008.8 mb 0.00 in0.0 mm 0.00 in0.0 mm 0.00 in0.0 mm
01:30 AM 38.1°F3.4°C 42.3°F5.7°C 91% 0.8 mph SSE1.3 kmh SSE 0.8 mph1.3 kmh 29.79 in1008.8 mb 0.00 in0.0 mm 0.00 in0.0 mm 0.00 in0.0 mm
01:33 AM 38.1°F3.4°C 42.4°F5.8°C 91% Calm Calm -- 29.79 in1008.8 mb 0.00 in0.0 mm 0.00 in0.0 mm 0.00 in0.0 mm
01:36 AM 38.1°F3.4°C 42.2°F5.7°C 92% Calm Calm -- 29.79 in1008.8 mb 0.00 in0.0 mm 0.00 in0.0 mm 0.00 in0.0 mm
01:39 AM 38.1°F3.4°C 42.4°F5.8°C 91% Calm Calm -- 29.79 in1008.8 mb 0.00 in0.0 mm 0.00 in0.0 mm 0.00 in0.0 mm
01:42 AM 38.1°F3.4°C 42.5°F5.8°C 92% Calm Calm -- 29.79 in1008.8 mb 0.00 in0.0 mm 0.00 in0.0 mm 0.00 in0.0 mm
01:45 AM 38.1°F3.4°C 42.3°F5.7°C 91% Calm Calm -- 29.79 in1008.8 mb 0.00 in0.0 mm 0.00 in0.0 mm 0.00 in0.0 mm
01:48 AM 38.1°F3.4°C 42.3°F5.7°C 92% Calm Calm -- 29.78 in1008.5 mb 0.00 in0.0 mm 0.00 in0.0 mm 0.00 in0.0 mm
01:51 AM 38.0°F3.3°C 42.3°F5.7°C 91% Calm Calm -- 29.77 in1008.1 mb 0.00 in0.0 mm 0.00 in0.0 mm 0.00 in0.0 mm
01:54 AM 38.0°F3.3°C 42.3°F5.7°C 91% Calm Calm -- 29.77 in1008.1 mb 0.00 in0.0 mm 0.00 in0.0 mm 0.00 in0.0 mm
01:57 AM 38.0°F3.3°C 42.1°F5.6°C 91% Calm Calm -- 29.77 in1008.1 mb 0.00 in0.0 mm 0.00 in0.0 mm 0.00 in0.0 mm
02:00 AM 38.0°F3.3°C 42.4°F5.8°C 92% 2.7 mph SE4.3 kmh SE 2.7 mph4.3 kmh 29.77 in1008.1 mb 0.00 in0.0 mm 0.00 in0.0 mm 0.00 in0.0 mm
02:03 AM 38.1°F3.4°C 42.1°F5.6°C 92% 2.8 mph ESE4.5 kmh ESE 2.8 mph4.5 kmh 29.77 in1008.1 mb 0.00 in0.0 mm 0.00 in0.0 mm 0.00 in0.0 mm
02:06 AM 38.1°F3.4°C 42.1°F5.6°C 91% 2.0 mph NNW3.2 kmh NNW 2.0 mph3.2 kmh 29.77 in1008.1 mb 0.00 in0.0 mm 0.00 in0.0 mm 0.00 in0.0 mm
02:09 AM 38.2°F3.4°C 42.5°F5.8°C 92% 2.0 mph ESE3.2 kmh ESE 2.0 mph3.2 kmh 29.77 in1008.1 mb 0.00 in0.0 mm 0.00 in0.0 mm 0.00 in0.0 mm
02:12 AM 38.2°F3.4°C 42.3°F5.7°C 92% 2.0 mph SE3.2 kmh SE 2.0 mph3.2 kmh 29.77 in1008.1 mb 0.00 in0.0 mm 0.00 in0.0 mm 0.00 in0.0 mm
02:15 AM 38.3°F3.5°C 42.2°F5.7°C 92% 1.6 mph ESE2.6 kmh ESE 1.6 mph2.6 kmh 29.77 in1008.1 mb 0.00 in0.0 mm 0.00 in0.0 mm 0.00 in0.0 mm
02:21 AM 38.3°F3.5°C 42.6°F5.9°C 92% Calm Calm -- 29.77 in1008.1 mb 0.00 in0.0 mm 0.00 in0.0 mm 0.00 in0.0 mm
02:24 AM 38.3°F3.5°C 42.6°F5.9°C 92% Calm Calm -- 29.77 in1008.1 mb 0.00 in0.0 mm 0.00 in0.0 mm 0.00 in0.0 mm
02:27 AM 38.3°F3.5°C 42.6°F5.9°C 92% Calm Calm -- 29.77 in1008.1 mb 0.00 in0.0 mm 0.00 in0.0 mm 0.00 in0.0 mm
02:30 AM 38.4°F3.6°C 42.6°F5.9°C 92% 2.3 mph SE3.7 kmh SE 2.3 mph3.7 kmh 29.77 in1008.1 mb 0.00 in0.0 mm 0.00 in0.0 mm 0.00 in0.0 mm
02:33 AM 38.4°F3.6°C 42.6°F5.9°C 92% 2.4 mph SSE3.9 kmh SSE 2.5 mph4.0 kmh 29.77 in1008.1 mb 0.00 in0.0 mm 0.00 in0.0 mm 0.00 in0.0 mm
02:36 AM 38.4°F3.6°C 42.1°F5.6°C 91% Calm Calm -- 29.77 in1008.1 mb 0.00 in0.0 mm 0.00 in0.0 mm 0.00 in0.0 mm
02:39 AM 38.4°F3.6°C 42.5°F5.8°C 92% Calm Calm -- 29.77 in1008.1 mb 0.00 in0.0 mm 0.00 in0.0 mm 0.00 in0.0 mm
02:42 AM 38.4°F3.6°C 42.1°F5.6°C 90% 0.8 mph SSE1.3 kmh SSE 0.8 mph1.3 kmh 29.77 in1008.1 mb 0.00 in0.0 mm 0.00 in0.0 mm 0.00 in0.0 mm
02:45 AM 38.4°F3.6°C 42.4°F5.8°C 92% 1.2 mph SE1.9 kmh SE 1.2 mph1.9 kmh 29.77 in1008.1 mb 0.00 in0.0 mm 0.00 in0.0 mm 0.00 in0.0 mm
02:48 AM 38.5°F3.6°C 42.5°F5.8°C 92% Calm Calm -- 29.77 in1008.1 mb 0.00 in0.0 mm 0.00 in0.0 mm 0.00 in0.0 mm
02:51 AM 38.4°F3.6°C 42.4°F5.8°C 91% Calm Calm -- 29.77 in1008.1 mb 0.00 in0.0 mm 0.00 in0.0 mm 0.00 in0.0 mm
02:54 AM 38.4°F3.6°C 42.5°F5.8°C 91% Calm Calm -- 29.77 in1008.1 mb 0.00 in0.0 mm 0.00 in0.0 mm 0.00 in0.0 mm
02:57 AM 38.4°F3.6°C 42.8°F6.0°C 92% Calm Calm -- 29.77 in1008.1 mb 0.00 in0.0 mm 0.00 in0.0 mm 0.00 in0.0 mm
03:00 AM 38.4°F3.6°C 42.6°F5.9°C 91% Calm Calm -- 29.77 in1008.1 mb 0.00 in0.0 mm 0.00 in0.0 mm 0.00 in0.0 mm
03:03 AM 38.3°F3.5°C 42.7°F5.9°C 91% Calm Calm -- 29.77 in1008.1 mb 0.00 in0.0 mm 0.00 in0.0 mm 0.00 in0.0 mm
03:06 AM 38.4°F3.6°C 42.7°F5.9°C 91% Calm Calm -- 29.77 in1008.1 mb 0.00 in0.0 mm 0.00 in0.0 mm 0.00 in0.0 mm
03:09 AM 38.3°F3.5°C 42.6°F5.9°C 92% Calm Calm -- 29.76 in1007.8 mb 0.00 in0.0 mm 0.00 in0.0 mm 0.00 in0.0 mm
03:12 AM 38.3°F3.5°C 42.2°F5.7°C 91% Calm Calm -- 29.76 in1007.8 mb 0.00 in0.0 mm 0.00 in0.0 mm 0.00 in0.0 mm
03:15 AM 38.4°F3.6°C 42.5°F5.8°C 91% Calm Calm -- 29.76 in1007.8 mb 0.00 in0.0 mm 0.00 in0.0 mm 0.00 in0.0 mm
03:18 AM 38.3°F3.5°C 42.4°F5.8°C 91% Calm Calm -- 29.76 in1007.8 mb 0.00 in0.0 mm 0.00 in0.0 mm 0.00 in0.0 mm
03:21 AM 38.3°F3.5°C 42.6°F5.9°C 91% Calm Calm -- 29.76 in1007.8 mb 0.00 in0.0 mm 0.00 in0.0 mm 0.00 in0.0 mm
03:24 AM 38.3°F3.5°C 42.5°F5.8°C 91% Calm Calm -- 29.76 in1007.8 mb 0.00 in0.0 mm 0.00 in0.0 mm 0.00 in0.0 mm
03:27 AM 38.2°F3.4°C 42.6°F5.9°C 91% Calm Calm -- 29.76 in1007.8 mb 0.00 in0.0 mm 0.00 in0.0 mm 0.00 in0.0 mm
03:30 AM 38.2°F3.4°C 42.3°F5.7°C 91% Calm Calm -- 29.76 in1007.8 mb 0.00 in0.0 mm 0.00 in0.0 mm 0.00 in0.0 mm
03:33 AM 38.2°F3.4°C 42.5°F5.8°C 91% Calm Calm -- 29.75 in1007.5 mb 0.00 in0.0 mm 0.00 in0.0 mm 0.00 in0.0 mm
03:36 AM 38.2°F3.4°C 42.4°F5.8°C 91% Calm Calm -- 29.74 in1007.1 mb 0.00 in0.0 mm 0.00 in0.0 mm 0.00 in0.0 mm
03:39 AM 38.2°F3.4°C 42.3°F5.7°C 91% Calm Calm -- 29.74 in1007.1 mb 0.00 in0.0 mm 0.00 in0.0 mm 0.00 in0.0 mm
03:42 AM 38.2°F3.4°C 42.3°F5.7°C 91% Calm Calm -- 29.74 in1007.1 mb 0.00 in0.0 mm 0.00 in0.0 mm 0.00 in0.0 mm
03:45 AM 38.1°F3.4°C 42.3°F5.7°C 91% Calm Calm -- 29.74 in1007.1 mb 0.00 in0.0 mm 0.00 in0.0 mm 0.00 in0.0 mm
03:48 AM 38.1°F3.4°C 42.5°F5.8°C 91% Calm Calm -- 29.74 in1007.1 mb 0.00 in0.0 mm 0.00 in0.0 mm 0.00 in0.0 mm
03:51 AM 38.1°F3.4°C 42.4°F5.8°C 91% Calm Calm -- 29.74 in1007.1 mb 0.00 in0.0 mm 0.00 in0.0 mm 0.00 in0.0 mm
03:54 AM 38.1°F3.4°C 42.4°F5.8°C 91% Calm Calm -- 29.74 in1007.1 mb 0.00 in0.0 mm 0.00 in0.0 mm 0.00 in0.0 mm
03:57 AM 38.1°F3.4°C 42.7°F5.9°C 91% Calm Calm -- 29.74 in1007.1 mb 0.00 in0.0 mm 0.00 in0.0 mm 0.00 in0.0 mm
04:00 AM 38.1°F3.4°C 42.3°F5.7°C 91% Calm Calm -- 29.74 in1007.1 mb 0.00 in0.0 mm 0.00 in0.0 mm 0.00 in0.0 mm
04:03 AM 38.1°F3.4°C 42.1°F5.6°C 90% Calm Calm -- 29.74 in1007.1 mb 0.00 in0.0 mm 0.00 in0.0 mm 0.00 in0.0 mm
04:06 AM 38.1°F3.4°C 42.4°F5.8°C 91% Calm Calm -- 29.73 in1006.8 mb 0.00 in0.0 mm 0.00 in0.0 mm 0.00 in0.0 mm
04:09 AM 38.1°F3.4°C 42.4°F5.8°C 91% Calm Calm -- 29.73 in1006.8 mb 0.00 in0.0 mm 0.00 in0.0 mm 0.00 in0.0 mm
04:12 AM 38.2°F3.4°C 42.2°F5.7°C 91% Calm Calm -- 29.74 in1007.1 mb 0.00 in0.0 mm 0.00 in0.0 mm 0.00 in0.0 mm
04:15 AM 38.2°F3.4°C 42.6°F5.9°C 91% Calm Calm -- 29.73 in1006.8 mb 0.00 in0.0 mm 0.00 in0.0 mm 0.02 in0.5 mm
04:18 AM 38.2°F3.4°C 42.4°F5.8°C 91% Calm Calm -- 29.73 in1006.8 mb 0.00 in0.0 mm 0.00 in0.0 mm 0.02 in0.5 mm
04:21 AM 38.2°F3.4°C 42.0°F5.6°C 90% 2.0 mph NNW3.2 kmh NNW 2.0 mph3.2 kmh 29.73 in1006.8 mb 0.00 in0.0 mm 0.00 in0.0 mm 0.02 in0.5 mm
04:24 AM 38.3°F3.5°C 42.3°F5.7°C 91% 2.0 mph NNW3.2 kmh NNW 2.0 mph3.2 kmh 29.73 in1006.8 mb 0.00 in0.0 mm 0.00 in0.0 mm 0.02 in0.5 mm
04:27 AM 38.4°F3.6°C 42.6°F5.9°C 91% 2.8 mph ESE4.5 kmh ESE 2.9 mph4.7 kmh 29.73 in1006.8 mb 0.00 in0.0 mm 0.00 in0.0 mm 0.02 in0.5 mm
04:30 AM 38.4°F3.6°C 42.4°F5.8°C 92% 1.6 mph ESE2.6 kmh ESE 1.6 mph2.6 kmh 29.72 in1006.4 mb 0.00 in0.0 mm 0.00 in0.0 mm 0.02 in0.5 mm
04:33 AM 38.4°F3.6°C 42.7°F5.9°C 91% 1.9 mph SE3.1 kmh SE 2.0 mph3.2 kmh 29.72 in1006.4 mb 0.00 in0.0 mm 0.00 in0.0 mm 0.02 in0.5 mm
04:36 AM 38.4°F3.6°C 42.6°F5.9°C 92% 0.8 mph SE1.3 kmh SE 0.8 mph1.3 kmh 29.72 in1006.4 mb 0.00 in0.0 mm 0.00 in0.0 mm 0.02 in0.5 mm
04:39 AM 38.4°F3.6°C 42.7°F5.9°C 92% 1.6 mph SE2.6 kmh SE 1.6 mph2.6 kmh 29.72 in1006.4 mb 0.00 in0.0 mm 0.00 in0.0 mm 0.02 in0.5 mm
04:42 AM 38.5°F3.6°C 42.7°F5.9°C 92% 0.8 mph SE1.3 kmh SE 0.8 mph1.3 kmh 29.72 in1006.4 mb 0.00 in0.0 mm 0.00 in0.0 mm 0.02 in0.5 mm
04:45 AM 38.6°F3.7°C 42.7°F5.9°C 92% 0.8 mph SE1.3 kmh SE 0.8 mph1.3 kmh 29.72 in1006.4 mb 0.00 in0.0 mm 0.00 in0.0 mm 0.02 in0.5 mm
04:48 AM 38.6°F3.7°C 42.7°F5.9°C 92% 2.0 mph NNW3.2 kmh NNW 2.0 mph3.2 kmh 29.72 in1006.4 mb 0.00 in0.0 mm 0.00 in0.0 mm 0.02 in0.5 mm
04:51 AM 38.5°F3.6°C 42.4°F5.8°C 91% 1.9 mph NNW3.1 kmh NNW 1.9 mph3.1 kmh 29.71 in1006.1 mb 0.00 in0.0 mm 0.00 in0.0 mm 0.02 in0.5 mm
04:54 AM 38.6°F3.7°C 42.6°F5.9°C 92% 1.6 mph NNW2.6 kmh NNW 1.6 mph2.6 kmh 29.71 in1006.1 mb 0.00 in0.0 mm 0.00 in0.0 mm 0.02 in0.5 mm
04:57 AM 38.6°F3.7°C 42.7°F5.9°C 92% 1.5 mph SE2.4 kmh SE 1.5 mph2.4 kmh 29.71 in1006.1 mb 0.00 in0.0 mm 0.00 in0.0 mm 0.02 in0.5 mm
05:00 AM 38.8°F3.8°C 42.9°F6.1°C 92% 2.3 mph SSE3.7 kmh SSE 2.4 mph3.9 kmh 29.71 in1006.1 mb 0.00 in0.0 mm 0.00 in0.0 mm 0.02 in0.5 mm
05:03 AM 38.8°F3.8°C 42.6°F5.9°C 92% 2.0 mph SE3.2 kmh SE 2.0 mph3.2 kmh 29.71 in1006.1 mb 0.00 in0.0 mm 0.00 in0.0 mm 0.02 in0.5 mm
05:06 AM 38.8°F3.8°C 42.9°F6.1°C 92% 0.4 mph SSE0.6 kmh SSE 0.4 mph0.6 kmh 29.71 in1006.1 mb 0.00 in0.0 mm 0.00 in0.0 mm 0.04 in1.0 mm
05:09 AM 38.8°F3.8°C 42.7°F5.9°C 92% 1.5 mph SE2.4 kmh SE 1.6 mph2.6 kmh 29.71 in1006.1 mb 0.00 in0.0 mm 0.00 in0.0 mm 0.04 in1.0 mm
05:12 AM 38.8°F3.8°C 42.9°F6.1°C 92% 3.2 mph ESE5.1 kmh ESE 3.2 mph5.1 kmh 29.71 in1006.1 mb 0.00 in0.0 mm 0.00 in0.0 mm 0.04 in1.0 mm
05:15 AM 38.8°F3.8°C 43.0°F6.1°C 92% 2.3 mph SE3.7 kmh SE 2.3 mph3.7 kmh 29.70 in1005.8 mb 0.00 in0.0 mm 0.00 in0.0 mm 0.04 in1.0 mm
05:18 AM 38.9°F3.8°C 42.9°F6.1°C 92% 2.4 mph SE3.9 kmh SE 2.4 mph3.9 kmh 29.70 in1005.8 mb 0.00 in0.0 mm 0.00 in0.0 mm 0.04 in1.0 mm
05:21 AM 38.8°F3.8°C 42.7°F5.9°C 92% 3.5 mph SE5.6 kmh SE 3.5 mph5.6 kmh 29.70 in1005.8 mb 0.00 in0.0 mm 0.00 in0.0 mm 0.04 in1.0 mm
05:24 AM 38.8°F3.8°C 42.9°F6.1°C 92% 1.2 mph SE1.9 kmh SE 1.2 mph1.9 kmh 29.70 in1005.8 mb 0.00 in0.0 mm 0.00 in0.0 mm 0.04 in1.0 mm
05:27 AM 38.8°F3.8°C 42.9°F6.1°C 92% 1.2 mph SSE1.9 kmh SSE 1.2 mph1.9 kmh 29.70 in1005.8 mb 0.00 in0.0 mm 0.00 in0.0 mm 0.04 in1.0 mm
05:30 AM 38.8°F3.8°C 43.1°F6.2°C 93% 0.8 mph NNW1.3 kmh NNW 0.8 mph1.3 kmh 29.70 in1005.8 mb 0.00 in0.0 mm 0.00 in0.0 mm 0.04 in1.0 mm
05:33 AM 38.8°F3.8°C 42.7°F5.9°C 91% 1.6 mph SE2.6 kmh SE 1.6 mph2.6 kmh 29.70 in1005.8 mb 0.00 in0.0 mm 0.00 in0.0 mm 0.04 in1.0 mm
05:36 AM 38.8°F3.8°C 43.1°F6.2°C 92% 0.8 mph SSE1.3 kmh SSE 0.8 mph1.3 kmh 29.69 in1005.4 mb 0.00 in0.0 mm 0.00 in0.0 mm 0.04 in1.0 mm
05:39 AM 38.8°F3.8°C 43.0°F6.1°C 92% 1.2 mph NNW1.9 kmh NNW 1.2 mph1.9 kmh 29.69 in1005.4 mb 0.00 in0.0 mm 0.00 in0.0 mm 0.04 in1.0 mm
05:42 AM 38.9°F3.8°C 43.1°F6.2°C 92% Calm Calm -- 29.69 in1005.4 mb 0.00 in0.0 mm 0.00 in0.0 mm 0.04 in1.0 mm
05:45 AM 38.9°F3.8°C 43.0°F6.1°C 92% 0.8 mph SSE1.3 kmh SSE 0.8 mph1.3 kmh 29.69 in1005.4 mb 0.00 in0.0 mm 0.00 in0.0 mm 0.06 in1.5 mm
05:48 AM 38.9°F3.8°C 43.0°F6.1°C 92% Calm Calm -- 29.69 in1005.4 mb 0.00 in0.0 mm 0.00 in0.0 mm 0.06 in1.5 mm
05:51 AM 38.9°F3.8°C 43.1°F6.2°C 92% 2.0 mph S3.2 kmh S 2.0 mph3.2 kmh 29.69 in1005.4 mb 0.00 in0.0 mm 0.00 in0.0 mm 0.06 in1.5 mm
05:54 AM 38.9°F3.8°C 43.0°F6.1°C 92% 0.4 mph SSE0.6 kmh SSE 0.4 mph0.6 kmh 29.69 in1005.4 mb 0.00 in0.0 mm 0.00 in0.0 mm 0.06 in1.5 mm
05:57 AM 38.9°F3.8°C 43.2°F6.2°C 92% 2.4 mph SE3.9 kmh SE 2.4 mph3.9 kmh 29.68 in1005.1 mb 0.00 in0.0 mm 0.00 in0.0 mm 0.06 in1.5 mm
06:00 AM 38.9°F3.8°C 43.0°F6.1°C 92% 3.5 mph SE5.6 kmh SE 3.5 mph5.6 kmh 29.68 in1005.1 mb 0.00 in0.0 mm 0.00 in0.0 mm 0.06 in1.5 mm
06:03 AM 39.0°F3.9°C 43.2°F6.2°C 93% 2.4 mph SE3.9 kmh SE 2.4 mph3.9 kmh 29.68 in1005.1 mb 0.00 in0.0 mm 0.00 in0.0 mm 0.06 in1.5 mm
06:06 AM 39.0°F3.9°C 43.2°F6.2°C 93% 0.8 mph SE1.3 kmh SE 0.8 mph1.3 kmh 29.68 in1005.1 mb 0.00 in0.0 mm 0.00 in0.0 mm 0.06 in1.5 mm
06:09 AM 39.0°F3.9°C 43.1°F6.2°C 93% 1.6 mph SSE2.6 kmh SSE 1.6 mph2.6 kmh 29.68 in1005.1 mb 0.00 in0.0 mm 0.00 in0.0 mm 0.06 in1.5 mm
06:12 AM 39.0°F3.9°C 42.9°F6.1°C 93% 1.5 mph S2.4 kmh S 1.6 mph2.6 kmh 29.68 in1005.1 mb 0.00 in0.0 mm 0.00 in0.0 mm 0.06 in1.5 mm
06:15 AM 39.1°F3.9°C 43.2°F6.2°C 93% 2.4 mph NNW3.9 kmh NNW 2.5 mph4.0 kmh 29.68 in1005.1 mb 0.00 in0.0 mm 0.00 in0.0 mm 0.06 in1.5 mm
06:18 AM 39.1°F3.9°C 43.1°F6.2°C 93% 2.0 mph NNW3.2 kmh NNW 2.0 mph3.2 kmh 29.68 in1005.1 mb 0.00 in0.0 mm 0.00 in0.0 mm 0.06 in1.5 mm
06:21 AM 39.1°F3.9°C 43.2°F6.2°C 93% 1.6 mph S2.6 kmh S 1.6 mph2.6 kmh 29.68 in1005.1 mb 0.00 in0.0 mm 0.00 in0.0 mm 0.06 in1.5 mm
06:24 AM 39.1°F3.9°C 43.2°F6.2°C 93% 1.2 mph S1.9 kmh S 1.2 mph1.9 kmh 29.68 in1005.1 mb 0.00 in0.0 mm 0.00 in0.0 mm 0.08 in2.0 mm
06:27 AM 39.1°F3.9°C 43.3°F6.3°C 93% 1.6 mph S2.6 kmh S 1.6 mph2.6 kmh 29.68 in1005.1 mb 0.00 in0.0 mm 0.00 in0.0 mm 0.08 in2.0 mm
06:30 AM 39.2°F4.0°C 43.2°F6.2°C 93% 0.8 mph S1.3 kmh S 0.8 mph1.3 kmh 29.68 in1005.1 mb 0.00 in0.0 mm 0.00 in0.0 mm 0.08 in2.0 mm
06:33 AM 39.1°F3.9°C 43.2°F6.2°C 93% 0.4 mph SSW0.6 kmh SSW 0.4 mph0.6 kmh 29.68 in1005.1 mb 0.00 in0.0 mm 0.00 in0.0 mm 0.08 in2.0 mm
06:36 AM 39.2°F4.0°C 43.4°F6.3°C 93% 1.2 mph S1.9 kmh S 1.2 mph1.9 kmh 29.67 in1004.7 mb 0.00 in0.0 mm 0.00 in0.0 mm 0.08 in2.0 mm
06:39 AM 39.2°F4.0°C 43.1°F6.2°C 93% 4.0 mph SSE6.4 kmh SSE 4.0 mph6.4 kmh 29.67 in1004.7 mb 0.00 in0.0 mm 0.00 in0.0 mm 0.08 in2.0 mm
06:42 AM 39.2°F4.0°C 42.9°F6.1°C 92% 2.0 mph SE3.2 kmh SE 2.0 mph3.2 kmh 29.67 in1004.7 mb 0.00 in0.0 mm 0.00 in0.0 mm 0.08 in2.0 mm
06:45 AM 39.2°F4.0°C 43.2°F6.2°C 93% 1.2 mph SSE1.9 kmh SSE 1.2 mph1.9 kmh 29.66 in1004.4 mb 0.00 in0.0 mm 0.00 in0.0 mm 0.08 in2.0 mm
06:48 AM 39.3°F4.1°C 43.5°F6.4°C 93% 0.4 mph SSW0.6 kmh SSW 0.4 mph0.6 kmh 29.67 in1004.7 mb 0.00 in0.0 mm 0.00 in0.0 mm 0.08 in2.0 mm
06:51 AM 39.3°F4.1°C 43.5°F6.4°C 93% 1.5 mph S2.4 kmh S 1.6 mph2.6 kmh 29.66 in1004.4 mb 0.00 in0.0 mm 0.00 in0.0 mm 0.08 in2.0 mm
06:54 AM 39.2°F4.0°C 43.0°F6.1°C 92% Calm Calm -- 29.66 in1004.4 mb 0.00 in0.0 mm 0.00 in0.0 mm 0.08 in2.0 mm
06:57 AM 39.3°F4.1°C 43.3°F6.3°C 93% Calm Calm -- 29.65 in1004.1 mb 0.00 in0.0 mm 0.00 in0.0 mm 0.08 in2.0 mm
07:00 AM 39.3°F4.1°C 43.5°F6.4°C 93% 3.1 mph S5.0 kmh S 3.1 mph5.0 kmh 29.65 in1004.1 mb 0.00 in0.0 mm 0.00 in0.0 mm 0.08 in2.0 mm
07:03 AM 39.3°F4.1°C 43.3°F6.3°C 93% 2.4 mph SSE3.9 kmh SSE 2.4 mph3.9 kmh 29.65 in1004.1 mb 0.00 in0.0 mm 0.00 in0.0 mm 0.08 in2.0 mm
07:06 AM 39.3°F4.1°C 43.6°F6.4°C 93% 0.8 mph SSE1.3 kmh SSE 0.8 mph1.3 kmh 29.65 in1004.1 mb 0.00 in0.0 mm 0.00 in0.0 mm 0.08 in2.0 mm
07:09 AM 39.3°F4.1°C 43.4°F6.3°C 93% 1.6 mph NNW2.6 kmh NNW 1.6 mph2.6 kmh 29.65 in1004.1 mb 0.00 in0.0 mm 0.00 in0.0 mm 0.08 in2.0 mm
07:12 AM 39.3°F4.1°C 43.5°F6.4°C 93% 0.8 mph SSW1.3 kmh SSW 0.8 mph1.3 kmh 29.65 in1004.1 mb 0.00 in0.0 mm 0.00 in0.0 mm 0.08 in2.0 mm
07:15 AM 39.3°F4.1°C 43.5°F6.4°C 93% 1.6 mph NNW2.6 kmh NNW 1.6 mph2.6 kmh 29.65 in1004.1 mb 0.00 in0.0 mm 0.00 in0.0 mm 0.08 in2.0 mm
07:18 AM 39.3°F4.1°C 43.5°F6.4°C 93% 1.6 mph WSW2.6 kmh WSW 1.6 mph2.6 kmh 29.65 in1004.1 mb 0.00 in0.0 mm 0.00 in0.0 mm 0.08 in2.0 mm
07:21 AM 39.3°F4.1°C 43.8°F6.6°C 93% 2.6 mph SSE4.2 kmh SSE 2.8 mph4.5 kmh 29.65 in1004.1 mb 0.00 in0.0 mm 0.00 in0.0 mm 0.08 in2.0 mm
07:24 AM 39.3°F4.1°C 43.2°F6.2°C 91% 0.8 mph SW1.3 kmh SW 0.8 mph1.3 kmh 29.64 in1003.7 mb 0.00 in0.0 mm 0.00 in0.0 mm 0.08 in2.0 mm
07:27 AM 39.3°F4.1°C 43.2°F6.2°C 92% 1.5 mph S2.4 kmh S 1.5 mph2.4 kmh 29.64 in1003.7 mb 0.00 in0.0 mm 0.00 in0.0 mm 0.08 in2.0 mm
07:30 AM 39.3°F4.1°C 43.6°F6.4°C 92% 2.0 mph S3.2 kmh S 2.0 mph3.2 kmh 29.64 in1003.7 mb 0.00 in0.0 mm 0.00 in0.0 mm 0.08 in2.0 mm
07:33 AM 39.3°F4.1°C 43.5°F6.4°C 93% 2.4 mph SSE3.9 kmh SSE 2.4 mph3.9 kmh 29.64 in1003.7 mb 0.00 in0.0 mm 0.00 in0.0 mm 0.08 in2.0 mm
07:36 AM 39.3°F4.1°C 43.6°F6.4°C 93% 1.2 mph SSE1.9 kmh SSE 1.2 mph1.9 kmh 29.64 in1003.7 mb 0.00 in0.0 mm 0.00 in0.0 mm 0.08 in2.0 mm
07:39 AM 39.3°F4.1°C 43.3°F6.3°C 92% 0.4 mph NNW0.6 kmh NNW 0.4 mph0.6 kmh 29.64 in1003.7 mb 0.00 in0.0 mm 0.00 in0.0 mm 0.10 in2.5 mm
07:42 AM 39.3°F4.1°C 43.5°F6.4°C 93% Calm Calm -- 29.64 in1003.7 mb 0.00 in0.0 mm 0.00 in0.0 mm 0.10 in2.5 mm
07:45 AM 39.3°F4.1°C 43.5°F6.4°C 93% 1.2 mph SSE1.9 kmh SSE 1.2 mph1.9 kmh 29.64 in1003.7 mb 0.00 in0.0 mm 0.00 in0.0 mm 0.10 in2.5 mm
07:48 AM 39.3°F4.1°C 43.3°F6.3°C 93% 1.6 mph SSE2.6 kmh SSE 1.6 mph2.6 kmh 29.64 in1003.7 mb 0.00 in0.0 mm 0.00 in0.0 mm 0.10 in2.5 mm
07:51 AM 39.4°F4.1°C 43.4°F6.3°C 93% Calm Calm -- 29.64 in1003.7 mb 0.00 in0.0 mm 0.00 in0.0 mm 0.10 in2.5 mm
07:54 AM 39.4°F4.1°C 43.7°F6.5°C 93% 0.8 mph NNW1.3 kmh NNW 0.8 mph1.3 kmh 29.63 in1003.4 mb 0.00 in0.0 mm 0.00 in0.0 mm 0.10 in2.5 mm
07:57 AM 39.4°F4.1°C 43.8°F6.6°C 93% Calm Calm -- 29.64 in1003.7 mb 0.00 in0.0 mm 0.00 in0.0 mm 0.10 in2.5 mm
08:00 AM 39.4°F4.1°C 43.5°F6.4°C 92% Calm Calm -- 29.64 in1003.7 mb 0.00 in0.0 mm 0.00 in0.0 mm 0.10 in2.5 mm
08:03 AM 39.4°F4.1°C 43.7°F6.5°C 92% Calm Calm -- 29.64 in1003.7 mb 0.00 in0.0 mm 0.00 in0.0 mm 0.10 in2.5 mm
08:06 AM 39.4°F4.1°C 43.7°F6.5°C 93% 1.2 mph W1.9 kmh W 1.2 mph1.9 kmh 29.64 in1003.7 mb 0.00 in0.0 mm 0.00 in0.0 mm 0.10 in2.5 mm
08:09 AM 39.4°F4.1°C 43.7°F6.5°C 92% 1.2 mph NNW1.9 kmh NNW 1.2 mph1.9 kmh 29.63 in1003.4 mb 0.00 in0.0 mm 0.00 in0.0 mm 0.10 in2.5 mm
08:12 AM 39.4°F4.1°C 43.7°F6.5°C 92% Calm Calm -- 29.64 in1003.7 mb 0.00 in0.0 mm 0.00 in0.0 mm 0.10 in2.5 mm
08:15 AM 39.4°F4.1°C 43.7°F6.5°C 92% Calm Calm -- 29.63 in1003.4 mb 0.00 in0.0 mm 0.00 in0.0 mm 0.10 in2.5 mm
08:18 AM 39.4°F4.1°C 43.7°F6.5°C 92% Calm Calm -- 29.63 in1003.4 mb 0.00 in0.0 mm 0.00 in0.0 mm 0.10 in2.5 mm
08:21 AM 39.5°F4.2°C 43.8°F6.6°C 92% Calm Calm -- 29.63 in1003.4 mb 0.00 in0.0 mm 0.00 in0.0 mm 0.10 in2.5 mm
08:24 AM 39.5°F4.2°C 43.9°F6.6°C 93% Calm Calm -- 29.63 in1003.4 mb 0.00 in0.0 mm 0.00 in0.0 mm 0.12 in3.0 mm
08:27 AM 39.5°F4.2°C 43.7°F6.5°C 92% Calm Calm -- 29.63 in1003.4 mb 0.00 in0.0 mm 0.00 in0.0 mm 0.12 in3.0 mm
08:30 AM 39.5°F4.2°C 44.0°F6.7°C 92% Calm Calm -- 29.62 in1003.0 mb 0.00 in0.0 mm 0.00 in0.0 mm 0.12 in3.0 mm
08:33 AM 39.5°F4.2°C 43.9°F6.6°C 92% Calm Calm -- 29.63 in1003.4 mb 0.00 in0.0 mm 0.00 in0.0 mm 0.12 in3.0 mm
08:36 AM 39.5°F4.2°C 43.9°F6.6°C 92% Calm Calm -- 29.63 in1003.4 mb 0.00 in0.0 mm 0.00 in0.0 mm 0.12 in3.0 mm
08:39 AM 39.5°F4.2°C 44.0°F6.7°C 93% Calm Calm -- 29.62 in1003.0 mb 0.00 in0.0 mm 0.00 in0.0 mm 0.12 in3.0 mm
08:42 AM 39.7°F4.3°C 44.0°F6.7°C 93% Calm Calm -- 29.62 in1003.0 mb 0.00 in0.0 mm 0.00 in0.0 mm 0.14 in3.6 mm
08:45 AM 39.7°F4.3°C 43.8°F6.6°C 92% Calm Calm -- 29.62 in1003.0 mb 0.00 in0.0 mm 0.00 in0.0 mm 0.14 in3.6 mm
08:48 AM 39.7°F4.3°C 43.6°F6.4°C 92% Calm Calm -- 29.62 in1003.0 mb 0.00 in0.0 mm 0.00 in0.0 mm 0.14 in3.6 mm
08:51 AM 39.7°F4.3°C 43.9°F6.6°C 92% Calm Calm -- 29.62 in1003.0 mb 0.00 in0.0 mm 0.00 in0.0 mm 0.16 in4.1 mm
08:54 AM 39.7°F4.3°C 44.0°F6.7°C 92% Calm Calm -- 29.62 in1003.0 mb 0.00 in0.0 mm 0.00 in0.0 mm 0.16 in4.1 mm
08:57 AM 39.7°F4.3°C 43.9°F6.6°C 93% Calm Calm -- 29.62 in1003.0 mb 0.00 in0.0 mm 0.00 in0.0 mm 0.18 in4.6 mm
09:00 AM 39.7°F4.3°C 43.7°F6.5°C 92% Calm Calm -- 29.62 in1003.0 mb 0.00 in0.0 mm 0.00 in0.0 mm 0.18 in4.6 mm
09:03 AM 39.8°F4.3°C 44.0°F6.7°C 92% Calm Calm -- 29.61 in1002.7 mb 0.00 in0.0 mm 0.00 in0.0 mm 0.20 in5.1 mm
09:06 AM 39.8°F4.3°C 44.1°F6.7°C 93% Calm Calm -- 29.62 in1003.0 mb 0.00 in0.0 mm 0.00 in0.0 mm 0.20 in5.1 mm
09:09 AM 39.8°F4.3°C 44.2°F6.8°C 92% Calm Calm -- 29.61 in1002.7 mb 0.00 in0.0 mm 0.00 in0.0 mm 0.22 in5.6 mm
09:12 AM 39.8°F4.3°C 44.1°F6.7°C 92% Calm Calm -- 29.61 in1002.7 mb 0.00 in0.0 mm 0.00 in0.0 mm 0.22 in5.6 mm
09:15 AM 39.9°F4.4°C 44.0°F6.7°C 93% Calm Calm -- 29.61 in1002.7 mb 0.00 in0.0 mm 0.00 in0.0 mm 0.24 in6.1 mm
09:18 AM 39.9°F4.4°C 44.0°F6.7°C 93% Calm Calm -- 29.61 in1002.7 mb 0.00 in0.0 mm 0.00 in0.0 mm 0.24 in6.1 mm
09:21 AM 40.0°F4.4°C 44.2°F6.8°C 93% Calm Calm -- 29.61 in1002.7 mb 0.00 in0.0 mm 0.00 in0.0 mm 0.26 in6.6 mm
09:24 AM 40.0°F4.4°C 43.9°F6.6°C 92% Calm Calm -- 29.61 in1002.7 mb 0.00 in0.0 mm 0.00 in0.0 mm 0.26 in6.6 mm
09:27 AM 40.0°F4.4°C 43.8°F6.6°C 92% Calm Calm -- 29.61 in1002.7 mb 0.00 in0.0 mm 0.00 in0.0 mm 0.26 in6.6 mm
09:30 AM 40.0°F4.4°C 44.4°F6.9°C 93% Calm Calm -- 29.61 in1002.7 mb 0.00 in0.0 mm 0.00 in0.0 mm 0.28 in7.1 mm
09:33 AM 40.1°F4.5°C 44.1°F6.7°C 93% Calm Calm -- 29.61 in1002.7 mb 0.00 in0.0 mm 0.00 in0.0 mm 0.28 in7.1 mm
09:36 AM 40.1°F4.5°C 44.4°F6.9°C 93% Calm Calm -- 29.61 in1002.7 mb 0.00 in0.0 mm 0.00 in0.0 mm 0.30 in7.6 mm
09:39 AM 40.2°F4.6°C 44.3°F6.8°C 93% Calm Calm -- 29.61 in1002.7 mb 0.00 in0.0 mm 0.00 in0.0 mm 0.30 in7.6 mm
09:42 AM 40.1°F4.5°C 44.4°F6.9°C 93% Calm Calm -- 29.61 in1002.7 mb 0.00 in0.0 mm 0.00 in0.0 mm 0.32 in8.1 mm
09:45 AM 40.2°F4.6°C 44.4°F6.9°C 93% Calm Calm -- 29.61 in1002.7 mb 0.00 in0.0 mm 0.00 in0.0 mm 0.34 in8.6 mm
09:48 AM 40.2°F4.6°C 44.4°F6.9°C 93% Calm Calm -- 29.61 in1002.7 mb 0.00 in0.0 mm 0.00 in0.0 mm 0.34 in8.6 mm
09:51 AM 40.3°F4.6°C 44.6°F7.0°C 93% Calm Calm -- 29.61 in1002.7 mb 0.00 in0.0 mm 0.00 in0.0 mm 0.36 in9.1 mm
09:54 AM 40.3°F4.6°C 44.5°F6.9°C 93% Calm Calm -- 29.61 in1002.7 mb 0.00 in0.0 mm 0.00 in0.0 mm 0.36 in9.1 mm
09:57 AM 40.3°F4.6°C 44.5°F6.9°C 93% Calm Calm -- 29.61 in1002.7 mb 0.00 in0.0 mm 0.00 in0.0 mm 0.36 in9.1 mm
10:00 AM 40.4°F4.7°C 44.5°F6.9°C 92% Calm Calm -- 29.61 in1002.7 mb 0.00 in0.0 mm 0.00 in0.0 mm 0.38 in9.7 mm
10:03 AM 40.4°F4.7°C 44.6°F7.0°C 93% Calm Calm -- 29.61 in1002.7 mb 0.00 in0.0 mm 0.00 in0.0 mm 0.38 in9.7 mm
10:06 AM 40.6°F4.8°C 44.6°F7.0°C 93% Calm Calm -- 29.61 in1002.7 mb 0.00 in0.0 mm 0.00 in0.0 mm 0.38 in9.7 mm
10:09 AM 40.6°F4.8°C 44.7°F7.1°C 93% Calm Calm -- 29.61 in1002.7 mb 0.00 in0.0 mm 0.00 in0.0 mm 0.38 in9.7 mm
10:12 AM 40.6°F4.8°C 44.7°F7.1°C 93% Calm Calm -- 29.61 in1002.7 mb 0.00 in0.0 mm 0.00 in0.0 mm 0.40 in10.2 mm
10:15 AM 40.7°F4.8°C 44.9°F7.2°C 93% Calm Calm -- 29.61 in1002.7 mb 0.00 in0.0 mm 0.00 in0.0 mm 0.40 in10.2 mm
10:18 AM 40.7°F4.8°C 45.0°F7.2°C 93% Calm Calm -- 29.61 in1002.7 mb 0.00 in0.0 mm 0.00 in0.0 mm 0.40 in10.2 mm
10:21 AM 40.7°F4.8°C 44.9°F7.2°C 93% 0.4 mph SE0.6 kmh SE 0.4 mph0.6 kmh 29.61 in1002.7 mb 0.00 in0.0 mm 0.00 in0.0 mm 0.40 in10.2 mm
10:24 AM 40.7°F4.8°C 45.0°F7.2°C 93% Calm Calm -- 29.61 in1002.7 mb 0.00 in0.0 mm 0.00 in0.0 mm 0.42 in10.7 mm
10:27 AM 40.8°F4.9°C 44.9°F7.2°C 93% Calm Calm -- 29.60 in1002.4 mb 0.00 in0.0 mm 0.00 in0.0 mm 0.42 in10.7 mm
10:30 AM 40.8°F4.9°C 45.1°F7.3°C 93% Calm Calm -- 29.59 in1002.0 mb 0.00 in0.0 mm 0.00 in0.0 mm 0.42 in10.7 mm
10:33 AM 40.9°F4.9°C 44.9°F7.2°C 93% Calm Calm -- 29.59 in1002.0 mb 0.00 in0.0 mm 0.00 in0.0 mm 0.42 in10.7 mm
10:36 AM 40.9°F4.9°C 45.1°F7.3°C 93% Calm Calm -- 29.59 in1002.0 mb 0.00 in0.0 mm 0.00 in0.0 mm 0.42 in10.7 mm
10:39 AM 40.9°F4.9°C 45.0°F7.2°C 93% Calm Calm -- 29.59 in1002.0 mb 0.00 in0.0 mm 0.00 in0.0 mm 0.42 in10.7 mm
10:42 AM 41.0°F5.0°C 45.1°F7.3°C 93% Calm Calm -- 29.59 in1002.0 mb 0.00 in0.0 mm 0.00 in0.0 mm 0.44 in11.2 mm
10:45 AM 41.0°F5.0°C 45.2°F7.3°C 93% Calm Calm -- 29.59 in1002.0 mb 0.00 in0.0 mm 0.00 in0.0 mm 0.44 in11.2 mm
10:48 AM 41.1°F5.1°C 45.0°F7.2°C 93% Calm Calm -- 29.58 in1001.7 mb 0.00 in0.0 mm 0.00 in0.0 mm 0.44 in11.2 mm
10:51 AM 41.1°F5.1°C 45.1°F7.3°C 93% 0.8 mph SW1.3 kmh SW 0.8 mph1.3 kmh 29.58 in1001.7 mb 0.00 in0.0 mm 0.00 in0.0 mm 0.44 in11.2 mm
10:54 AM 41.2°F5.1°C 45.2°F7.3°C 93% 2.0 mph SSW3.2 kmh SSW 2.0 mph3.2 kmh 29.58 in1001.7 mb 0.00 in0.0 mm 0.00 in0.0 mm 0.44 in11.2 mm
10:57 AM 41.2°F5.1°C 45.4°F7.4°C 93% Calm Calm -- 29.58 in1001.7 mb 0.00 in0.0 mm 0.00 in0.0 mm 0.44 in11.2 mm
11:00 AM 41.3°F5.2°C 45.3°F7.4°C 93% Calm Calm -- 29.58 in1001.7 mb 0.00 in0.0 mm 0.00 in0.0 mm 0.44 in11.2 mm
11:03 AM 41.3°F5.2°C 45.2°F7.3°C 93% Calm Calm -- 29.58 in1001.7 mb 0.00 in0.0 mm 0.00 in0.0 mm 0.44 in11.2 mm
11:06 AM 41.5°F5.3°C 45.4°F7.4°C 93% 0.4 mph SW0.6 kmh SW 0.4 mph0.6 kmh 29.58 in1001.7 mb 0.00 in0.0 mm 0.00 in0.0 mm 0.44 in11.2 mm
11:09 AM 41.5°F5.3°C 45.3°F7.4°C 93% Calm Calm -- 29.58 in1001.7 mb 0.00 in0.0 mm 0.00 in0.0 mm 0.44 in11.2 mm
11:12 AM 41.5°F5.3°C 45.3°F7.4°C 93% Calm Calm -- 29.58 in1001.7 mb 0.00 in0.0 mm 0.00 in0.0 mm 0.44 in11.2 mm
11:15 AM 41.6°F5.3°C 45.4°F7.4°C 93% Calm Calm -- 29.58 in1001.7 mb 0.00 in0.0 mm 0.00 in0.0 mm 0.44 in11.2 mm
11:18 AM 41.6°F5.3°C 45.4°F7.4°C 93% Calm Calm -- 29.58 in1001.7 mb 0.00 in0.0 mm 0.00 in0.0 mm 0.44 in11.2 mm
11:21 AM 41.6°F5.3°C 45.6°F7.6°C 93% Calm Calm -- 29.58 in1001.7 mb 0.00 in0.0 mm 0.00 in0.0 mm 0.44 in11.2 mm
11:24 AM 41.6°F5.3°C 45.5°F7.5°C 93% Calm Calm -- 29.58 in1001.7 mb 0.00 in0.0 mm 0.00 in0.0 mm 0.46 in11.7 mm
11:27 AM 41.7°F5.4°C 45.3°F7.4°C 93% Calm Calm -- 29.58 in1001.7 mb 0.00 in0.0 mm 0.00 in0.0 mm 0.46 in11.7 mm
11:30 AM 41.7°F5.4°C 45.9°F7.7°C 93% Calm Calm -- 29.58 in1001.7 mb 0.00 in0.0 mm 0.00 in0.0 mm 0.46 in11.7 mm
11:33 AM 41.7°F5.4°C 45.7°F7.6°C 93% Calm Calm -- 29.57 in1001.4 mb 0.00 in0.0 mm 0.00 in0.0 mm 0.46 in11.7 mm
11:36 AM 41.8°F5.4°C 45.7°F7.6°C 93% Calm Calm -- 29.57 in1001.4 mb 0.00 in0.0 mm 0.00 in0.0 mm 0.46 in11.7 mm
11:39 AM 41.9°F5.5°C 45.6°F7.6°C 92% Calm Calm -- 29.57 in1001.4 mb 0.00 in0.0 mm 0.00 in0.0 mm 0.46 in11.7 mm
11:42 AM 41.9°F5.5°C 45.6°F7.6°C 93% Calm Calm -- 29.56 in1001.0 mb 0.00 in0.0 mm 0.00 in0.0 mm 0.46 in11.7 mm
11:45 AM 42.1°F5.6°C 45.6°F7.6°C 93% Calm Calm -- 29.56 in1001.0 mb 0.00 in0.0 mm 0.00 in0.0 mm 0.46 in11.7 mm
11:48 AM 42.1°F5.6°C 45.9°F7.7°C 93% Calm Calm -- 29.56 in1001.0 mb 0.00 in0.0 mm 0.00 in0.0 mm 0.48 in12.2 mm
11:51 AM 42.2°F5.7°C 45.8°F7.7°C 92% Calm Calm -- 29.56 in1001.0 mb 0.00 in0.0 mm 0.00 in0.0 mm 0.48 in12.2 mm
11:54 AM 42.5°F5.8°C 46.1°F7.8°C 93% Calm Calm -- 29.56 in1001.0 mb 0.00 in0.0 mm 0.00 in0.0 mm 0.48 in12.2 mm
11:57 AM 42.6°F5.9°C 46.2°F7.9°C 93% 0.4 mph NNW0.6 kmh NNW 0.4 mph0.6 kmh 29.56 in1001.0 mb 0.00 in0.0 mm 0.00 in0.0 mm 0.48 in12.2 mm
12:00 PM 42.6°F5.9°C 46.3°F7.9°C 94% 1.5 mph WSW2.4 kmh WSW 1.6 mph2.6 kmh 29.55 in1000.7 mb 0.00 in0.0 mm 0.00 in0.0 mm 0.48 in12.2 mm
12:03 PM 42.6°F5.9°C 46.3°F7.9°C 94% 1.2 mph SW1.9 kmh SW 1.2 mph1.9 kmh 29.56 in1001.0 mb 0.00 in0.0 mm 0.00 in0.0 mm 0.48 in12.2 mm
12:06 PM 42.7°F5.9°C 46.4°F8.0°C 93% Calm Calm -- 29.56 in1001.0 mb 0.00 in0.0 mm 0.00 in0.0 mm 0.48 in12.2 mm
12:09 PM 42.7°F5.9°C 46.2°F7.9°C 93% 0.8 mph WSW1.3 kmh WSW 0.8 mph1.3 kmh 29.56 in1001.0 mb 0.00 in0.0 mm 0.00 in0.0 mm 0.48 in12.2 mm
12:12 PM 42.8°F6.0°C 46.5°F8.1°C 93% 4.4 mph WSW7.1 kmh WSW 4.4 mph7.1 kmh 29.55 in1000.7 mb 0.00 in0.0 mm 0.00 in0.0 mm 0.48 in12.2 mm
12:15 PM 42.9°F6.1°C 46.5°F8.1°C 93% 4.4 mph W7.1 kmh W 4.4 mph7.1 kmh 29.56 in1001.0 mb 0.00 in0.0 mm 0.00 in0.0 mm 0.48 in12.2 mm
12:18 PM 42.9°F6.1°C 46.3°F7.9°C 93% 5.3 mph W8.5 kmh W 5.3 mph8.5 kmh 29.56 in1001.0 mb 0.00 in0.0 mm 0.00 in0.0 mm 0.48 in12.2 mm
12:21 PM 42.9°F6.1°C 46.7°F8.2°C 94% 1.2 mph NNW1.9 kmh NNW 1.2 mph1.9 kmh 29.56 in1001.0 mb 0.00 in0.0 mm 0.00 in0.0 mm 0.48 in12.2 mm
12:24 PM 42.9°F6.1°C 46.5°F8.1°C 94% 0.8 mph SW1.3 kmh SW 0.8 mph1.3 kmh 29.56 in1001.0 mb 0.00 in0.0 mm 0.00 in0.0 mm 0.48 in12.2 mm
12:27 PM 42.9°F6.1°C 46.6°F8.1°C 93% 6.9 mph WSW11.1 kmh WSW 6.9 mph11.1 kmh 29.55 in1000.7 mb 0.00 in0.0 mm 0.00 in0.0 mm 0.48 in12.2 mm
12:30 PM 42.9°F6.1°C 46.6°F8.1°C 94% 3.2 mph SW5.1 kmh SW 3.3 mph5.3 kmh 29.55 in1000.7 mb 0.00 in0.0 mm 0.00 in0.0 mm 0.48 in12.2 mm
12:33 PM 42.9°F6.1°C 46.6°F8.1°C 93% 0.4 mph NNW0.6 kmh NNW 0.4 mph0.6 kmh 29.55 in1000.7 mb 0.00 in0.0 mm 0.00 in0.0 mm 0.48 in12.2 mm
12:36 PM 42.9°F6.1°C 46.6°F8.1°C 93% 3.8 mph NNW6.1 kmh NNW 4.0 mph6.4 kmh 29.55 in1000.7 mb 0.00 in0.0 mm 0.00 in0.0 mm 0.48 in12.2 mm
12:39 PM 42.9°F6.1°C 46.5°F8.1°C 93% 1.2 mph NW1.9 kmh NW 1.2 mph1.9 kmh 29.55 in1000.7 mb 0.00 in0.0 mm 0.00 in0.0 mm 0.48 in12.2 mm
12:42 PM 43.0°F6.1°C 46.8°F8.2°C 93% Calm Calm -- 29.55 in1000.7 mb 0.00 in0.0 mm 0.00 in0.0 mm 0.48 in12.2 mm
12:45 PM 43.0°F6.1°C 46.7°F8.2°C 93% 1.9 mph SW3.1 kmh SW 1.9 mph3.1 kmh 29.55 in1000.7 mb 0.00 in0.0 mm 0.00 in0.0 mm 0.48 in12.2 mm
12:48 PM 43.0°F6.1°C 46.7°F8.2°C 93% Calm Calm -- 29.55 in1000.7 mb 0.00 in0.0 mm 0.00 in0.0 mm 0.50 in12.7 mm
12:51 PM 43.1°F6.2°C 46.9°F8.3°C 93% Calm Calm -- 29.55 in1000.7 mb 0.00 in0.0 mm 0.00 in0.0 mm 0.50 in12.7 mm
12:54 PM 43.1°F6.2°C 47.0°F8.3°C 93% 0.8 mph W1.3 kmh W 0.8 mph1.3 kmh 29.55 in1000.7 mb 0.00 in0.0 mm 0.00 in0.0 mm 0.50 in12.7 mm
12:57 PM 43.3°F6.3°C 47.1°F8.4°C 93% 0.8 mph WSW1.3 kmh WSW 0.8 mph1.3 kmh 29.55 in1000.7 mb 0.00 in0.0 mm 0.00 in0.0 mm 0.50 in12.7 mm
01:00 PM 43.4°F6.3°C 47.2°F8.4°C 94% 2.3 mph WSW3.7 kmh WSW 2.3 mph3.7 kmh 29.55 in1000.7 mb 0.00 in0.0 mm 0.00 in0.0 mm 0.50 in12.7 mm
01:03 PM 43.5°F6.4°C 46.8°F8.2°C 93% 2.3 mph WSW3.7 kmh WSW 2.3 mph3.7 kmh 29.55 in1000.7 mb 0.00 in0.0 mm 0.00 in0.0 mm 0.52 in13.2 mm
01:06 PM 43.5°F6.4°C 47.1°F8.4°C 93% 1.5 mph NNW2.4 kmh NNW 1.6 mph2.6 kmh 29.55 in1000.7 mb 0.00 in0.0 mm 0.00 in0.0 mm 0.52 in13.2 mm
01:09 PM 43.5°F6.4°C 47.3°F8.5°C 94% 2.0 mph SW3.2 kmh SW 2.0 mph3.2 kmh 29.55 in1000.7 mb 0.00 in0.0 mm 0.00 in0.0 mm 0.52 in13.2 mm
01:12 PM 43.5°F6.4°C 46.7°F8.2°C 92% 0.8 mph NNW1.3 kmh NNW 0.8 mph1.3 kmh 29.55 in1000.7 mb 0.00 in0.0 mm 0.00 in0.0 mm 0.52 in13.2 mm
01:15 PM 43.5°F6.4°C 47.2°F8.4°C 94% Calm Calm -- 29.55 in1000.7 mb 0.00 in0.0 mm 0.00 in0.0 mm 0.52 in13.2 mm
01:18 PM 43.5°F6.4°C 47.4°F8.6°C 94% 0.4 mph WSW0.6 kmh WSW 0.4 mph0.6 kmh 29.55 in1000.7 mb 0.00 in0.0 mm 0.00 in0.0 mm 0.52 in13.2 mm
01:21 PM 43.5°F6.4°C 47.3°F8.5°C 93% 1.2 mph WSW1.9 kmh WSW 1.2 mph1.9 kmh 29.55 in1000.7 mb 0.00 in0.0 mm 0.00 in0.0 mm 0.52 in13.2 mm
01:24 PM 43.5°F6.4°C 47.3°F8.5°C 94% 3.6 mph NNW5.8 kmh NNW 3.6 mph5.8 kmh 29.55 in1000.7 mb 0.00 in0.0 mm 0.00 in0.0 mm 0.52 in13.2 mm
01:27 PM 43.5°F6.4°C 47.3°F8.5°C 93% 0.4 mph SW0.6 kmh SW 0.4 mph0.6 kmh 29.55 in1000.7 mb 0.00 in0.0 mm 0.00 in0.0 mm 0.52 in13.2 mm
01:30 PM 43.5°F6.4°C 47.2°F8.4°C 93% 3.6 mph NNW5.8 kmh NNW 3.6 mph5.8 kmh 29.55 in1000.7 mb 0.00 in0.0 mm 0.00 in0.0 mm 0.52 in13.2 mm
01:33 PM 43.5°F6.4°C 47.3°F8.5°C 93% 2.8 mph WNW4.5 kmh WNW 2.8 mph4.5 kmh 29.55 in1000.7 mb 0.00 in0.0 mm 0.00 in0.0 mm 0.52 in13.2 mm
01:36 PM 43.5°F6.4°C 47.1°F8.4°C 93% 1.2 mph W1.9 kmh W 1.2 mph1.9 kmh 29.55 in1000.7 mb 0.00 in0.0 mm 0.00 in0.0 mm 0.54 in13.7 mm
01:39 PM 43.5°F6.4°C 47.2°F8.4°C 93% Calm Calm -- 29.55 in1000.7 mb 0.00 in0.0 mm 0.00 in0.0 mm 0.54 in13.7 mm
01:42 PM 43.5°F6.4°C 47.3°F8.5°C 93% 1.9 mph NW3.1 kmh NW 1.9 mph3.1 kmh 29.55 in1000.7 mb 0.00 in0.0 mm 0.00 in0.0 mm 0.54 in13.7 mm
01:45 PM 43.5°F6.4°C 47.2°F8.4°C 93% 1.2 mph W1.9 kmh W 1.2 mph1.9 kmh 29.55 in1000.7 mb 0.00 in0.0 mm 0.00 in0.0 mm 0.54 in13.7 mm
01:48 PM 43.6°F6.4°C 47.4°F8.6°C 93% Calm Calm -- 29.54 in1000.3 mb 0.00 in0.0 mm 0.00 in0.0 mm 0.54 in13.7 mm
01:51 PM 43.6°F6.4°C 47.4°F8.6°C 93% Calm Calm -- 29.54 in1000.3 mb 0.00 in0.0 mm 0.00 in0.0 mm 0.56 in14.2 mm
01:54 PM 43.6°F6.4°C 47.2°F8.4°C 93% Calm Calm -- 29.54 in1000.3 mb 0.00 in0.0 mm 0.00 in0.0 mm 0.56 in14.2 mm
01:57 PM 43.6°F6.4°C 46.9°F8.3°C 92% Calm Calm -- 29.53 in1000.0 mb 0.00 in0.0 mm 0.00 in0.0 mm 0.56 in14.2 mm
02:00 PM 43.6°F6.4°C 47.3°F8.5°C 93% Calm Calm -- 29.53 in1000.0 mb 0.00 in0.0 mm 0.00 in0.0 mm 0.56 in14.2 mm
02:03 PM 43.6°F6.4°C 47.5°F8.6°C 93% Calm Calm -- 29.53 in1000.0 mb 0.00 in0.0 mm 0.00 in0.0 mm 0.56 in14.2 mm
02:06 PM 43.6°F6.4°C 47.7°F8.7°C 93% Calm Calm -- 29.53 in1000.0 mb 0.00 in0.0 mm 0.00 in0.0 mm 0.56 in14.2 mm
02:09 PM 43.6°F6.4°C 47.6°F8.7°C 93% 0.4 mph WNW0.6 kmh WNW 0.4 mph0.6 kmh 29.54 in1000.3 mb 0.00 in0.0 mm 0.00 in0.0 mm 0.56 in14.2 mm
02:12 PM 43.6°F6.4°C 47.5°F8.6°C 93% Calm Calm -- 29.54 in1000.3 mb 0.00 in0.0 mm 0.00 in0.0 mm 0.58 in14.7 mm
02:15 PM 43.7°F6.5°C 47.7°F8.7°C 93% Calm Calm -- 29.54 in1000.3 mb 0.00 in0.0 mm 0.00 in0.0 mm 0.58 in14.7 mm
02:18 PM 43.6°F6.4°C 47.5°F8.6°C 93% Calm Calm -- 29.53 in1000.0 mb 0.00 in0.0 mm 0.00 in0.0 mm 0.58 in14.7 mm
02:21 PM 43.6°F6.4°C 47.5°F8.6°C 93% Calm Calm -- 29.53 in1000.0 mb 0.00 in0.0 mm 0.00 in0.0 mm 0.60 in15.2 mm
02:24 PM 43.6°F6.4°C 47.4°F8.6°C 93% Calm Calm -- 29.54 in1000.3 mb 0.00 in0.0 mm 0.00 in0.0 mm 0.60 in15.2 mm
02:27 PM 43.6°F6.4°C 47.6°F8.7°C 93% Calm Calm -- 29.53 in1000.0 mb 0.00 in0.0 mm 0.00 in0.0 mm 0.60 in15.2 mm
02:30 PM 43.7°F6.5°C 47.6°F8.7°C 93% Calm Calm -- 29.53 in1000.0 mb 0.00 in0.0 mm 0.00 in0.0 mm 0.60 in15.2 mm
02:33 PM 43.7°F6.5°C 47.6°F8.7°C 93% Calm Calm -- 29.53 in1000.0 mb 0.00 in0.0 mm 0.00 in0.0 mm 0.62 in15.7 mm
02:36 PM 43.7°F6.5°C 47.6°F8.7°C 93% Calm Calm -- 29.53 in1000.0 mb 0.00 in0.0 mm 0.00 in0.0 mm 0.62 in15.7 mm
02:39 PM 43.7°F6.5°C 47.7°F8.7°C 93% Calm Calm -- 29.54 in1000.3 mb 0.00 in0.0 mm 0.00 in0.0 mm 0.62 in15.7 mm
02:45 PM 43.8°F6.6°C 47.9°F8.8°C 93% Calm Calm -- 29.54 in1000.3 mb 0.00 in0.0 mm 0.00 in0.0 mm 0.64 in16.3 mm
02:48 PM 43.8°F6.6°C 47.6°F8.7°C 93% Calm Calm -- 29.54 in1000.3 mb 0.00 in0.0 mm 0.00 in0.0 mm 0.64 in16.3 mm
02:51 PM 43.9°F6.6°C 47.5°F8.6°C 92% Calm Calm -- 29.54 in1000.3 mb 0.00 in0.0 mm 0.00 in0.0 mm 0.64 in16.3 mm
02:54 PM 43.9°F6.6°C 48.0°F8.9°C 93% Calm Calm -- 29.54 in1000.3 mb 0.00 in0.0 mm 0.00 in0.0 mm 0.64 in16.3 mm
02:57 PM 43.9°F6.6°C 47.6°F8.7°C 92% Calm Calm -- 29.54 in1000.3 mb 0.00 in0.0 mm 0.00 in0.0 mm 0.64 in16.3 mm
03:00 PM 43.9°F6.6°C 47.9°F8.8°C 93% Calm Calm -- 29.54 in1000.3 mb 0.00 in0.0 mm 0.00 in0.0 mm 0.64 in16.3 mm
03:03 PM 44.0°F6.7°C 47.9°F8.8°C 93% Calm Calm -- 29.54 in1000.3 mb 0.00 in0.0 mm 0.00 in0.0 mm 0.64 in16.3 mm
03:06 PM 43.9°F6.6°C 47.9°F8.8°C 93% Calm Calm -- 29.55 in1000.7 mb 0.00 in0.0 mm 0.00 in0.0 mm 0.64 in16.3 mm
03:09 PM 44.0°F6.7°C 48.1°F8.9°C 93% Calm Calm -- 29.55 in1000.7 mb 0.00 in0.0 mm 0.00 in0.0 mm 0.64 in16.3 mm
03:12 PM 44.0°F6.7°C 48.1°F8.9°C 93% Calm Calm -- 29.54 in1000.3 mb 0.00 in0.0 mm 0.00 in0.0 mm 0.66 in16.8 mm
03:15 PM 44.0°F6.7°C 48.0°F8.9°C 93% Calm Calm -- 29.54 in1000.3 mb 0.00 in0.0 mm 0.00 in0.0 mm 0.66 in16.8 mm
03:18 PM 44.0°F6.7°C 48.0°F8.9°C 93% Calm Calm -- 29.55 in1000.7 mb 0.00 in0.0 mm 0.00 in0.0 mm 0.66 in16.8 mm
03:21 PM 44.2°F6.8°C 48.3°F9.1°C 94% Calm Calm -- 29.55 in1000.7 mb 0.00 in0.0 mm 0.00 in0.0 mm 0.66 in16.8 mm
03:24 PM 44.2°F6.8°C 47.9°F8.8°C 93% Calm Calm -- 29.54 in1000.3 mb 0.00 in0.0 mm 0.00 in0.0 mm 0.66 in16.8 mm
03:27 PM 44.2°F6.8°C 48.1°F8.9°C 93% Calm Calm -- 29.55 in1000.7 mb 0.00 in0.0 mm 0.00 in0.0 mm 0.66 in16.8 mm
03:30 PM 44.2°F6.8°C 48.1°F8.9°C 93% Calm Calm -- 29.55 in1000.7 mb 0.00 in0.0 mm 0.00 in0.0 mm 0.68 in17.3 mm
03:33 PM 44.2°F6.8°C 48.2°F9.0°C 93% Calm Calm -- 29.54 in1000.3 mb 0.00 in0.0 mm 0.00 in0.0 mm 0.68 in17.3 mm
03:36 PM 44.2°F6.8°C 48.2°F9.0°C 93% Calm Calm -- 29.54 in1000.3 mb 0.00 in0.0 mm 0.00 in0.0 mm 0.68 in17.3 mm
03:39 PM 44.2°F6.8°C 47.9°F8.8°C 92% Calm Calm -- 29.55 in1000.7 mb 0.00 in0.0 mm 0.00 in0.0 mm 0.68 in17.3 mm
03:42 PM 44.2°F6.8°C 48.2°F9.0°C 93% Calm Calm -- 29.54 in1000.3 mb 0.00 in0.0 mm 0.00 in0.0 mm 0.68 in17.3 mm
03:45 PM 44.2°F6.8°C 48.2°F9.0°C 93% Calm Calm -- 29.55 in1000.7 mb 0.00 in0.0 mm 0.00 in0.0 mm 0.68 in17.3 mm
03:48 PM 44.2°F6.8°C 48.4°F9.1°C 93% Calm Calm -- 29.55 in1000.7 mb 0.00 in0.0 mm 0.00 in0.0 mm 0.70 in17.8 mm
03:51 PM 44.2°F6.8°C 48.3°F9.1°C 93% Calm Calm -- 29.55 in1000.7 mb 0.00 in0.0 mm 0.00 in0.0 mm 0.70 in17.8 mm
03:54 PM 44.3°F6.8°C 48.4°F9.1°C 93% Calm Calm -- 29.55 in1000.7 mb 0.00 in0.0 mm 0.00 in0.0 mm 0.70 in17.8 mm
03:57 PM 44.3°F6.8°C 48.4°F9.1°C 93% Calm Calm -- 29.55 in1000.7 mb 0.00 in0.0 mm 0.00 in0.0 mm 0.70 in17.8 mm
04:00 PM 44.3°F6.8°C 48.3°F9.1°C 93% Calm Calm -- 29.54 in1000.3 mb 0.00 in0.0 mm 0.00 in0.0 mm 0.70 in17.8 mm
04:03 PM 44.2°F6.8°C 48.4°F9.1°C 93% Calm Calm -- 29.55 in1000.7 mb 0.00 in0.0 mm 0.00 in0.0 mm 0.72 in18.3 mm
04:06 PM 44.3°F6.8°C 48.3°F9.1°C 93% Calm Calm -- 29.55 in1000.7 mb 0.00 in0.0 mm 0.00 in0.0 mm 0.72 in18.3 mm
04:09 PM 44.3°F6.8°C 48.5°F9.2°C 93% Calm Calm -- 29.55 in1000.7 mb 0.00 in0.0 mm 0.00 in0.0 mm 0.72 in18.3 mm
04:12 PM 44.3°F6.8°C 48.5°F9.2°C 93% Calm Calm -- 29.55 in1000.7 mb 0.00 in0.0 mm 0.00 in0.0 mm 0.72 in18.3 mm
04:15 PM 44.2°F6.8°C 48.6°F9.2°C 93% Calm Calm -- 29.55 in1000.7 mb 0.00 in0.0 mm 0.00 in0.0 mm 0.72 in18.3 mm
04:18 PM 44.2°F6.8°C 48.3°F9.1°C 93% Calm Calm -- 29.55 in1000.7 mb 0.00 in0.0 mm 0.00 in0.0 mm 0.72 in18.3 mm
04:21 PM 44.3°F6.8°C 48.5°F9.2°C 93% Calm Calm -- 29.55 in1000.7 mb 0.00 in0.0 mm 0.00 in0.0 mm 0.72 in18.3 mm
04:24 PM 44.2°F6.8°C 48.4°F9.1°C 93% Calm Calm -- 29.55 in1000.7 mb 0.00 in0.0 mm 0.00 in0.0 mm 0.72 in18.3 mm
04:27 PM 44.2°F6.8°C 48.4°F9.1°C 93% Calm Calm -- 29.55 in1000.7 mb 0.00 in0.0 mm 0.00 in0.0 mm 0.72 in18.3 mm
04:30 PM 44.2°F6.8°C 48.4°F9.1°C 92% Calm Calm -- 29.55 in1000.7 mb 0.00 in0.0 mm 0.00 in0.0 mm 0.72 in18.3 mm
04:33 PM 44.3°F6.8°C 48.4°F9.1°C 93% Calm Calm -- 29.55 in1000.7 mb 0.00 in0.0 mm 0.00 in0.0 mm 0.72 in18.3 mm
04:36 PM 44.4°F6.9°C 48.5°F9.2°C 93% Calm Calm -- 29.55 in1000.7 mb 0.00 in0.0 mm 0.00 in0.0 mm 0.72 in18.3 mm
04:39 PM 44.3°F6.8°C 48.5°F9.2°C 93% Calm Calm -- 29.55 in1000.7 mb 0.00 in0.0 mm 0.00 in0.0 mm 0.72 in18.3 mm
04:42 PM 44.4°F6.9°C 48.5°F9.2°C 93% Calm Calm -- 29.55 in1000.7 mb 0.00 in0.0 mm 0.00 in0.0 mm 0.72 in18.3 mm
04:45 PM 44.4°F6.9°C 48.5°F9.2°C 93% Calm Calm -- 29.55 in1000.7 mb 0.00 in0.0 mm 0.00 in0.0 mm 0.74 in18.8 mm
04:48 PM 44.3°F6.8°C 48.5°F9.2°C 93% Calm Calm -- 29.55 in1000.7 mb 0.00 in0.0 mm 0.00 in0.0 mm 0.74 in18.8 mm
04:51 PM 44.3°F6.8°C 48.9°F9.4°C 93% Calm Calm -- 29.55 in1000.7 mb 0.00 in0.0 mm 0.00 in0.0 mm 0.74 in18.8 mm
04:54 PM 44.3°F6.8°C 48.6°F9.2°C 93% Calm Calm -- 29.55 in1000.7 mb 0.00 in0.0 mm 0.00 in0.0 mm 0.74 in18.8 mm
04:57 PM 44.3°F6.8°C 48.6°F9.2°C 93% Calm Calm -- 29.55 in1000.7 mb 0.00 in0.0 mm 0.00 in0.0 mm 0.74 in18.8 mm
05:00 PM 44.3°F6.8°C 48.7°F9.3°C 93% Calm Calm -- 29.55 in1000.7 mb 0.00 in0.0 mm 0.00 in0.0 mm 0.74 in18.8 mm
05:03 PM 44.3°F6.8°C 48.6°F9.2°C 93% Calm Calm -- 29.55 in1000.7 mb 0.00 in0.0 mm 0.00 in0.0 mm 0.74 in18.8 mm
05:06 PM 44.3°F6.8°C 48.7°F9.3°C 93% Calm Calm -- 29.55 in1000.7 mb 0.00 in0.0 mm 0.00 in0.0 mm 0.74 in18.8 mm
05:09 PM 44.4°F6.9°C 48.6°F9.2°C 93% Calm Calm -- 29.55 in1000.7 mb 0.00 in0.0 mm 0.00 in0.0 mm 0.74 in18.8 mm
05:12 PM 44.6°F7.0°C 48.6°F9.2°C 93% Calm Calm -- 29.55 in1000.7 mb 0.00 in0.0 mm 0.00 in0.0 mm 0.74 in18.8 mm
05:15 PM 44.5°F6.9°C 48.6°F9.2°C 93% Calm Calm -- 29.55 in1000.7 mb 0.00 in0.0 mm 0.00 in0.0 mm 0.74 in18.8 mm
05:18 PM 44.6°F7.0°C 48.7°F9.3°C 93% Calm Calm -- 29.55 in1000.7 mb 0.00 in0.0 mm 0.00 in0.0 mm 0.74 in18.8 mm
05:21 PM 44.4°F6.9°C 48.7°F9.3°C 93% Calm Calm -- 29.55 in1000.7 mb 0.00 in0.0 mm 0.00 in0.0 mm 0.76 in19.3 mm
05:24 PM 44.5°F6.9°C 48.8°F9.3°C 93% Calm Calm -- 29.55 in1000.7 mb 0.00 in0.0 mm 0.00 in0.0 mm 0.76 in19.3 mm
05:27 PM 44.6°F7.0°C 48.7°F9.3°C 93% Calm Calm -- 29.55 in1000.7 mb 0.00 in0.0 mm 0.00 in0.0 mm 0.76 in19.3 mm
05:30 PM 44.6°F7.0°C 48.6°F9.2°C 93% Calm Calm -- 29.55 in1000.7 mb 0.00 in0.0 mm 0.00 in0.0 mm 0.76 in19.3 mm
05:33 PM 44.7°F7.1°C 48.7°F9.3°C 93% Calm Calm -- 29.55 in1000.7 mb 0.00 in0.0 mm 0.00 in0.0 mm 0.76 in19.3 mm
05:36 PM 44.6°F7.0°C 48.8°F9.3°C 93% Calm Calm -- 29.55 in1000.7 mb 0.00 in0.0 mm 0.00 in0.0 mm 0.76 in19.3 mm
05:39 PM 44.7°F7.1°C 48.8°F9.3°C 93% Calm Calm -- 29.55 in1000.7 mb 0.00 in0.0 mm 0.00 in0.0 mm 0.76 in19.3 mm
05:42 PM 44.7°F7.1°C 48.9°F9.4°C 93% Calm Calm -- 29.55 in1000.7 mb 0.00 in0.0 mm 0.00 in0.0 mm 0.76 in19.3 mm
05:45 PM 44.6°F7.0°C 48.7°F9.3°C 93% Calm Calm -- 29.55 in1000.7 mb 0.00 in0.0 mm 0.00 in0.0 mm 0.76 in19.3 mm
05:48 PM 44.6°F7.0°C 49.1°F9.5°C 93% Calm Calm -- 29.55 in1000.7 mb 0.00 in0.0 mm 0.00 in0.0 mm 0.76 in19.3 mm
05:51 PM 44.6°F7.0°C 48.9°F9.4°C 93% Calm Calm -- 29.55 in1000.7 mb 0.00 in0.0 mm 0.00 in0.0 mm 0.76 in19.3 mm
05:54 PM 44.6°F7.0°C 48.9°F9.4°C 93% Calm Calm -- 29.56 in1001.0 mb 0.00 in0.0 mm 0.00 in0.0 mm 0.76 in19.3 mm
05:57 PM 44.6°F7.0°C 48.8°F9.3°C 93% Calm Calm -- 29.55 in1000.7 mb 0.00 in0.0 mm 0.00 in0.0 mm 0.78 in19.8 mm
06:00 PM 44.7°F7.1°C 48.9°F9.4°C 93% Calm Calm -- 29.55 in1000.7 mb 0.00 in0.0 mm 0.00 in0.0 mm 0.78 in19.8 mm
06:03 PM 44.7°F7.1°C 49.0°F9.4°C 93% Calm Calm -- 29.56 in1001.0 mb 0.00 in0.0 mm 0.00 in0.0 mm 0.78 in19.8 mm
06:06 PM 44.7°F7.1°C 48.9°F9.4°C 93% Calm Calm -- 29.56 in1001.0 mb 0.00 in0.0 mm 0.00 in0.0 mm 0.78 in19.8 mm
06:09 PM 44.7°F7.1°C 49.1°F9.5°C 93% Calm Calm -- 29.56 in1001.0 mb 0.00 in0.0 mm 0.00 in0.0 mm 0.78 in19.8 mm
06:12 PM 44.8°F7.1°C 48.7°F9.3°C 93% Calm Calm -- 29.56 in1001.0 mb 0.00 in0.0 mm 0.00 in0.0 mm 0.78 in19.8 mm
06:15 PM 44.8°F7.1°C 49.0°F9.4°C 94% Calm Calm -- 29.56 in1001.0 mb 0.00 in0.0 mm 0.00 in0.0 mm 0.78 in19.8 mm
06:18 PM 44.8°F7.1°C 48.7°F9.3°C 92% Calm Calm -- 29.56 in1001.0 mb 0.00 in0.0 mm 0.00 in0.0 mm 0.78 in19.8 mm
06:21 PM 44.8°F7.1°C 48.9°F9.4°C 93% Calm Calm -- 29.56 in1001.0 mb 0.00 in0.0 mm 0.00 in0.0 mm 0.78 in19.8 mm
06:24 PM 44.9°F7.2°C 48.9°F9.4°C 93% Calm Calm -- 29.56 in1001.0 mb 0.00 in0.0 mm 0.00 in0.0 mm 0.78 in19.8 mm
06:27 PM 45.1°F7.3°C 49.1°F9.5°C 93% Calm Calm -- 29.56 in1001.0 mb 0.00 in0.0 mm 0.00 in0.0 mm 0.78 in19.8 mm
06:30 PM 45.8°F7.7°C 49.2°F9.6°C 93% Calm Calm -- 29.57 in1001.4 mb 0.00 in0.0 mm 0.00 in0.0 mm 0.78 in19.8 mm
06:33 PM 46.1°F7.8°C 49.3°F9.6°C 94% Calm Calm -- 29.56 in1001.0 mb 0.00 in0.0 mm 0.00 in0.0 mm 0.78 in19.8 mm
06:36 PM 46.3°F7.9°C 49.8°F9.9°C 94% Calm Calm -- 29.57 in1001.4 mb 0.00 in0.0 mm 0.00 in0.0 mm 0.78 in19.8 mm
06:39 PM 46.3°F7.9°C 49.7°F9.8°C 94% Calm Calm -- 29.57 in1001.4 mb 0.00 in0.0 mm 0.00 in0.0 mm 0.78 in19.8 mm
06:42 PM 46.7°F8.2°C 49.8°F9.9°C 94% Calm Calm -- 29.57 in1001.4 mb 0.00 in0.0 mm 0.00 in0.0 mm 0.78 in19.8 mm
06:45 PM 47.0°F8.3°C 49.8°F9.9°C 94% 0.8 mph 1.3 kmh 0.8 mph1.3 kmh 29.57 in1001.4 mb 0.00 in0.0 mm 0.00 in0.0 mm 0.78 in19.8 mm
06:48 PM 46.7°F8.2°C 50.1°F10.1°C 94% Calm Calm -- 29.57 in1001.4 mb 0.00 in0.0 mm 0.00 in0.0 mm 0.78 in19.8 mm
06:51 PM 47.0°F8.3°C 50.3°F10.2°C 94% 1.6 mph 2.6 kmh 1.6 mph2.6 kmh 29.57 in1001.4 mb 0.00 in0.0 mm 0.00 in0.0 mm 0.78 in19.8 mm
06:54 PM 46.7°F8.2°C 50.4°F10.2°C 94% Calm Calm -- 29.58 in1001.7 mb 0.00 in0.0 mm 0.00 in0.0 mm 0.78 in19.8 mm
06:57 PM 47.1°F8.4°C 50.5°F10.3°C 94% Calm Calm -- 29.57 in1001.4 mb 0.00 in0.0 mm 0.00 in0.0 mm 0.78 in19.8 mm
07:00 PM 47.3°F8.5°C 50.5°F10.3°C 94% 1.5 mph 2.4 kmh 1.6 mph2.6 kmh 29.58 in1001.7 mb 0.00 in0.0 mm 0.00 in0.0 mm 0.78 in19.8 mm
07:03 PM 47.2°F8.4°C 50.6°F10.3°C 95% 0.4 mph NNW0.6 kmh NNW 0.4 mph0.6 kmh 29.58 in1001.7 mb 0.00 in0.0 mm 0.00 in0.0 mm 0.78 in19.8 mm
07:06 PM 47.4°F8.6°C 50.6°F10.3°C 94% 0.4 mph 0.6 kmh 0.4 mph0.6 kmh 29.58 in1001.7 mb 0.00 in0.0 mm 0.00 in0.0 mm 0.78 in19.8 mm
07:09 PM 47.5°F8.6°C 50.8°F10.4°C 95% 0.4 mph NE0.6 kmh NE 0.4 mph0.6 kmh 29.58 in1001.7 mb 0.00 in0.0 mm 0.00 in0.0 mm 0.78 in19.8 mm
07:12 PM 47.6°F8.7°C 50.7°F10.4°C 94% Calm Calm -- 29.58 in1001.7 mb 0.00 in0.0 mm 0.00 in0.0 mm 0.78 in19.8 mm
07:15 PM 47.9°F8.8°C 51.1°F10.6°C 95% 2.3 mph NNW3.7 kmh NNW 2.3 mph3.7 kmh 29.58 in1001.7 mb 0.00 in0.0 mm 0.00 in0.0 mm 0.78 in19.8 mm
07:18 PM 47.8°F8.8°C 51.1°F10.6°C 95% 2.8 mph NW4.5 kmh NW 2.8 mph4.5 kmh 29.58 in1001.7 mb 0.00 in0.0 mm 0.00 in0.0 mm 0.78 in19.8 mm
07:21 PM 47.9°F8.8°C 51.3°F10.7°C 95% Calm Calm -- 29.57 in1001.4 mb 0.00 in0.0 mm 0.00 in0.0 mm 0.78 in19.8 mm
07:24 PM 48.2°F9.0°C 51.7°F10.9°C 95% Calm Calm -- 29.58 in1001.7 mb 0.00 in0.0 mm 0.00 in0.0 mm 0.78 in19.8 mm
07:27 PM 48.2°F9.0°C 51.4°F10.8°C 94% 0.4 mph NW0.6 kmh NW 0.4 mph0.6 kmh 29.57 in1001.4 mb 0.00 in0.0 mm 0.00 in0.0 mm 0.78 in19.8 mm
07:30 PM 48.3°F9.1°C 51.5°F10.8°C 95% 3.6 mph WNW5.8 kmh WNW 3.6 mph5.8 kmh 29.58 in1001.7 mb 0.00 in0.0 mm 0.00 in0.0 mm 0.78 in19.8 mm
07:33 PM 48.4°F9.1°C 51.5°F10.8°C 95% 2.0 mph 3.2 kmh 2.0 mph3.2 kmh 29.58 in1001.7 mb 0.00 in0.0 mm 0.00 in0.0 mm 0.78 in19.8 mm
07:36 PM 48.5°F9.2°C 51.7°F10.9°C 95% 0.4 mph 0.6 kmh 0.4 mph0.6 kmh 29.58 in1001.7 mb 0.00 in0.0 mm 0.00 in0.0 mm 0.78 in19.8 mm
07:39 PM 48.7°F9.3°C 52.0°F11.1°C 95% 1.6 mph NNW2.6 kmh NNW 1.6 mph2.6 kmh 29.58 in1001.7 mb 0.00 in0.0 mm 0.00 in0.0 mm 0.78 in19.8 mm
07:42 PM 48.5°F9.2°C 51.9°F11.1°C 95% Calm Calm -- 29.57 in1001.4 mb 0.00 in0.0 mm 0.00 in0.0 mm 0.78 in19.8 mm
07:45 PM 48.8°F9.3°C 52.3°F11.3°C 95% 1.6 mph NNW2.6 kmh NNW 1.6 mph2.6 kmh 29.58 in1001.7 mb 0.00 in0.0 mm 0.00 in0.0 mm 0.78 in19.8 mm
07:48 PM 48.8°F9.3°C 52.1°F11.2°C 95% 3.9 mph NNW6.3 kmh NNW 3.9 mph6.3 kmh 29.58 in1001.7 mb 0.00 in0.0 mm 0.00 in0.0 mm 0.78 in19.8 mm
07:51 PM 48.9°F9.4°C 52.5°F11.4°C 96% 5.3 mph WNW8.5 kmh WNW 5.3 mph8.5 kmh 29.58 in1001.7 mb 0.00 in0.0 mm 0.00 in0.0 mm 0.78 in19.8 mm
07:54 PM 49.1°F9.5°C 52.5°F11.4°C 96% 2.0 mph NNW3.2 kmh NNW 2.0 mph3.2 kmh 29.58 in1001.7 mb 0.00 in0.0 mm 0.00 in0.0 mm 0.78 in19.8 mm
07:57 PM 48.9°F9.4°C 52.5°F11.4°C 95% Calm Calm -- 29.58 in1001.7 mb 0.00 in0.0 mm 0.00 in0.0 mm 0.78 in19.8 mm
08:00 PM 49.1°F9.5°C 52.7°F11.5°C 95% 1.9 mph W3.1 kmh W 1.9 mph3.1 kmh 29.58 in1001.7 mb 0.00 in0.0 mm 0.00 in0.0 mm 0.78 in19.8 mm
08:03 PM 49.0°F9.4°C 52.7°F11.5°C 95% 0.4 mph WNW0.6 kmh WNW 0.4 mph0.6 kmh 29.57 in1001.4 mb 0.00 in0.0 mm 0.00 in0.0 mm 0.78 in19.8 mm
08:06 PM 48.9°F9.4°C 52.6°F11.4°C 95% 1.2 mph W1.9 kmh W 1.2 mph1.9 kmh 29.58 in1001.7 mb 0.00 in0.0 mm 0.00 in0.0 mm 0.78 in19.8 mm
08:09 PM 49.1°F9.5°C 52.6°F11.4°C 95% Calm Calm -- 29.58 in1001.7 mb 0.00 in0.0 mm 0.00 in0.0 mm 0.78 in19.8 mm
08:12 PM 49.0°F9.4°C 52.6°F11.4°C 95% Calm Calm -- 29.58 in1001.7 mb 0.00 in0.0 mm 0.00 in0.0 mm 0.78 in19.8 mm
08:15 PM 49.0°F9.4°C 52.7°F11.5°C 95% Calm Calm -- 29.58 in1001.7 mb 0.00 in0.0 mm 0.00 in0.0 mm 0.78 in19.8 mm
08:18 PM 49.1°F9.5°C 52.7°F11.5°C 95% 0.4 mph SW0.6 kmh SW 0.4 mph0.6 kmh 29.58 in1001.7 mb 0.00 in0.0 mm 0.00 in0.0 mm 0.78 in19.8 mm
08:21 PM 49.1°F9.5°C 52.9°F11.6°C 95% 1.6 mph NW2.6 kmh NW 1.6 mph2.6 kmh 29.57 in1001.4 mb 0.00 in0.0 mm 0.00 in0.0 mm 0.78 in19.8 mm
08:24 PM 49.1°F9.5°C 52.7°F11.5°C 95% Calm Calm -- 29.58 in1001.7 mb 0.00 in0.0 mm 0.00 in0.0 mm 0.78 in19.8 mm
08:27 PM 49.2°F9.6°C 53.1°F11.7°C 95% 1.6 mph WNW2.6 kmh WNW 1.6 mph2.6 kmh 29.58 in1001.7 mb 0.00 in0.0 mm 0.00 in0.0 mm 0.80 in20.3 mm
08:30 PM 49.2°F9.6°C 52.9°F11.6°C 95% 3.2 mph NW5.1 kmh NW 3.3 mph5.3 kmh 29.58 in1001.7 mb 0.00 in0.0 mm 0.00 in0.0 mm 0.80 in20.3 mm
08:33 PM 49.2°F9.6°C 52.9°F11.6°C 95% 1.1 mph NW1.8 kmh NW 1.2 mph1.9 kmh 29.58 in1001.7 mb 0.00 in0.0 mm 0.00 in0.0 mm 0.80 in20.3 mm
08:36 PM 49.3°F9.6°C 53.1°F11.7°C 95% 2.8 mph W4.5 kmh W 2.8 mph4.5 kmh 29.58 in1001.7 mb 0.00 in0.0 mm 0.00 in0.0 mm 0.80 in20.3 mm
08:39 PM 49.2°F9.6°C 52.9°F11.6°C 95% 5.7 mph NNW9.2 kmh NNW 5.8 mph9.3 kmh 29.58 in1001.7 mb 0.00 in0.0 mm 0.00 in0.0 mm 0.80 in20.3 mm
08:42 PM 49.3°F9.6°C 53.0°F11.7°C 95% Calm Calm -- 29.58 in1001.7 mb 0.00 in0.0 mm 0.00 in0.0 mm 0.80 in20.3 mm
08:45 PM 49.2°F9.6°C 53.2°F11.8°C 95% 1.2 mph WNW1.9 kmh WNW 1.2 mph1.9 kmh 29.58 in1001.7 mb 0.00 in0.0 mm 0.00 in0.0 mm 0.80 in20.3 mm
08:48 PM 49.3°F9.6°C 53.2°F11.8°C 95% 1.2 mph W1.9 kmh W 1.2 mph1.9 kmh 29.58 in1001.7 mb 0.00 in0.0 mm 0.00 in0.0 mm 0.80 in20.3 mm
08:51 PM 49.3°F9.6°C 52.8°F11.6°C 94% 0.8 mph WNW1.3 kmh WNW 0.8 mph1.3 kmh 29.58 in1001.7 mb 0.00 in0.0 mm 0.00 in0.0 mm 0.80 in20.3 mm
08:54 PM 49.4°F9.7°C 53.1°F11.7°C 95% 1.2 mph NNW1.9 kmh NNW 1.2 mph1.9 kmh 29.58 in1001.7 mb 0.00 in0.0 mm 0.00 in0.0 mm 0.80 in20.3 mm
08:57 PM 49.3°F9.6°C 53.1°F11.7°C 94% 3.6 mph WNW5.8 kmh WNW 3.6 mph5.8 kmh 29.58 in1001.7 mb 0.00 in0.0 mm 0.00 in0.0 mm 0.80 in20.3 mm
09:00 PM 49.6°F9.8°C 53.3°F11.8°C 95% 1.9 mph W3.1 kmh W 2.0 mph3.2 kmh 29.58 in1001.7 mb 0.00 in0.0 mm 0.00 in0.0 mm 0.80 in20.3 mm
09:03 PM 49.6°F9.8°C 53.3°F11.8°C 95% 1.5 mph WNW2.4 kmh WNW 1.6 mph2.6 kmh 29.58 in1001.7 mb 0.00 in0.0 mm 0.00 in0.0 mm 0.80 in20.3 mm
09:06 PM 49.4°F9.7°C 53.3°F11.8°C 94% 1.6 mph W2.6 kmh W 1.6 mph2.6 kmh 29.58 in1001.7 mb 0.00 in0.0 mm 0.00 in0.0 mm 0.80 in20.3 mm
09:09 PM 49.3°F9.6°C 53.3°F11.8°C 95% Calm Calm -- 29.58 in1001.7 mb 0.00 in0.0 mm 0.00 in0.0 mm 0.80 in20.3 mm
09:12 PM 49.4°F9.7°C 52.9°F11.6°C 93% Calm Calm -- 29.58 in1001.7 mb 0.00 in0.0 mm 0.00 in0.0 mm 0.80 in20.3 mm
09:15 PM 49.3°F9.6°C 53.1°F11.7°C 93% 3.6 mph WNW5.8 kmh WNW 3.6 mph5.8 kmh 29.58 in1001.7 mb 0.00 in0.0 mm 0.00 in0.0 mm 0.80 in20.3 mm
09:18 PM 49.6°F9.8°C 53.4°F11.9°C 94% 3.6 mph NNW5.8 kmh NNW 3.6 mph5.8 kmh 29.58 in1001.7 mb 0.00 in0.0 mm 0.00 in0.0 mm 0.80 in20.3 mm
09:21 PM 49.6°F9.8°C 53.3°F11.8°C 94% 0.4 mph NNW0.6 kmh NNW 0.4 mph0.6 kmh 29.58 in1001.7 mb 0.00 in0.0 mm 0.00 in0.0 mm 0.80 in20.3 mm
09:24 PM 49.4°F9.7°C 52.9°F11.6°C 93% 0.8 mph NW1.3 kmh NW 0.8 mph1.3 kmh 29.58 in1001.7 mb 0.00 in0.0 mm 0.00 in0.0 mm 0.80 in20.3 mm
09:27 PM 49.7°F9.8°C 53.6°F12.0°C 94% 0.8 mph W1.3 kmh W 0.8 mph1.3 kmh 29.58 in1001.7 mb 0.00 in0.0 mm 0.00 in0.0 mm 0.80 in20.3 mm
09:30 PM 49.7°F9.8°C 53.5°F11.9°C 94% 0.8 mph SSW1.3 kmh SSW 0.8 mph1.3 kmh 29.58 in1001.7 mb 0.00 in0.0 mm 0.00 in0.0 mm 0.80 in20.3 mm
09:33 PM 49.7°F9.8°C 53.8°F12.1°C 95% 4.5 mph WSW7.2 kmh WSW 4.5 mph7.2 kmh 29.58 in1001.7 mb 0.00 in0.0 mm 0.00 in0.0 mm 0.80 in20.3 mm
09:36 PM 49.7°F9.8°C 53.5°F11.9°C 94% 2.4 mph W3.9 kmh W 2.4 mph3.9 kmh 29.58 in1001.7 mb 0.00 in0.0 mm 0.00 in0.0 mm 0.80 in20.3 mm
09:39 PM 49.6°F9.8°C 53.6°F12.0°C 94% 3.4 mph W5.5 kmh W 3.6 mph5.8 kmh 29.57 in1001.4 mb 0.00 in0.0 mm 0.00 in0.0 mm 0.80 in20.3 mm
09:42 PM 49.8°F9.9°C 53.7°F12.1°C 95% 2.8 mph NNW4.5 kmh NNW 2.8 mph4.5 kmh 29.57 in1001.4 mb 0.00 in0.0 mm 0.00 in0.0 mm 0.80 in20.3 mm
09:45 PM 49.9°F9.9°C 53.4°F11.9°C 94% 6.4 mph WSW10.3 kmh WSW 6.4 mph10.3 kmh 29.57 in1001.4 mb 0.00 in0.0 mm 0.00 in0.0 mm 0.80 in20.3 mm
09:48 PM 50.0°F10.0°C 53.7°F12.1°C 95% 2.0 mph W3.2 kmh W 2.0 mph3.2 kmh 29.58 in1001.7 mb 0.00 in0.0 mm 0.00 in0.0 mm 0.80 in20.3 mm
09:51 PM 49.9°F9.9°C 53.8°F12.1°C 94% 1.5 mph NNW2.4 kmh NNW 1.6 mph2.6 kmh 29.58 in1001.7 mb 0.00 in0.0 mm 0.00 in0.0 mm 0.80 in20.3 mm
09:54 PM 49.7°F9.8°C 53.4°F11.9°C 93% 1.2 mph SW1.9 kmh SW 1.2 mph1.9 kmh 29.58 in1001.7 mb 0.00 in0.0 mm 0.00 in0.0 mm 0.80 in20.3 mm
09:57 PM 49.7°F9.8°C 53.7°F12.1°C 94% 2.0 mph WSW3.2 kmh WSW 2.0 mph3.2 kmh 29.58 in1001.7 mb 0.00 in0.0 mm 0.00 in0.0 mm 0.80 in20.3 mm
10:00 PM 49.7°F9.8°C 53.8°F12.1°C 94% 0.8 mph NNW1.3 kmh NNW 0.8 mph1.3 kmh 29.58 in1001.7 mb 0.00 in0.0 mm 0.00 in0.0 mm 0.80 in20.3 mm
10:03 PM 49.8°F9.9°C 53.8°F12.1°C 94% 3.2 mph W5.1 kmh W 3.2 mph5.1 kmh 29.58 in1001.7 mb 0.00 in0.0 mm 0.00 in0.0 mm 0.80 in20.3 mm
10:06 PM 49.8°F9.9°C 53.7°F12.1°C 94% 3.2 mph W5.1 kmh W 3.2 mph5.1 kmh 29.57 in1001.4 mb 0.00 in0.0 mm 0.00 in0.0 mm 0.80 in20.3 mm
10:09 PM 49.8°F9.9°C 54.0°F12.2°C 94% 3.2 mph W5.1 kmh W 3.2 mph5.1 kmh 29.57 in1001.4 mb 0.00 in0.0 mm 0.00 in0.0 mm 0.80 in20.3 mm
10:12 PM 49.7°F9.8°C 53.8°F12.1°C 94% 2.7 mph NNW4.3 kmh NNW 2.7 mph4.3 kmh 29.58 in1001.7 mb 0.00 in0.0 mm 0.00 in0.0 mm 0.80 in20.3 mm
10:15 PM 49.7°F9.8°C 53.9°F12.2°C 95% 2.4 mph SW3.9 kmh SW 2.4 mph3.9 kmh 29.58 in1001.7 mb 0.00 in0.0 mm 0.00 in0.0 mm 0.80 in20.3 mm
10:18 PM 49.8°F9.9°C 53.9°F12.2°C 94% 3.6 mph WSW5.8 kmh WSW 3.6 mph5.8 kmh 29.57 in1001.4 mb 0.00 in0.0 mm 0.00 in0.0 mm 0.82 in20.8 mm
10:21 PM 49.9°F9.9°C 53.4°F11.9°C 93% 4.2 mph NW6.8 kmh NW 4.2 mph6.8 kmh 29.57 in1001.4 mb 0.00 in0.0 mm 0.00 in0.0 mm 0.82 in20.8 mm
10:24 PM 49.8°F9.9°C 54.0°F12.2°C 94% 0.8 mph NNW1.3 kmh NNW 0.8 mph1.3 kmh 29.58 in1001.7 mb 0.00 in0.0 mm 0.00 in0.0 mm 0.82 in20.8 mm
10:27 PM 49.8°F9.9°C 54.1°F12.3°C 95% 4.4 mph SSW7.1 kmh SSW 4.4 mph7.1 kmh 29.57 in1001.4 mb 0.00 in0.0 mm 0.00 in0.0 mm 0.82 in20.8 mm
10:30 PM 49.9°F9.9°C 54.1°F12.3°C 95% 3.1 mph W5.0 kmh W 3.2 mph5.1 kmh 29.57 in1001.4 mb 0.00 in0.0 mm 0.00 in0.0 mm 0.82 in20.8 mm
10:33 PM 50.0°F10.0°C 53.9°F12.2°C 94% Calm Calm -- 29.58 in1001.7 mb 0.00 in0.0 mm 0.00 in0.0 mm 0.82 in20.8 mm
10:36 PM 49.9°F9.9°C 54.0°F12.2°C 94% 3.2 mph W5.1 kmh W 3.3 mph5.3 kmh 29.57 in1001.4 mb 0.00 in0.0 mm 0.00 in0.0 mm 0.82 in20.8 mm
10:39 PM 49.9°F9.9°C 53.4°F11.9°C 92% 3.2 mph W5.1 kmh W 3.2 mph5.1 kmh 29.57 in1001.4 mb 0.00 in0.0 mm 0.00 in0.0 mm 0.82 in20.8 mm
10:42 PM 50.0°F10.0°C 53.7°F12.1°C 93% 3.6 mph WNW5.8 kmh WNW 3.6 mph5.8 kmh 29.57 in1001.4 mb 0.00 in0.0 mm 0.00 in0.0 mm 0.82 in20.8 mm
10:45 PM 50.0°F10.0°C 54.1°F12.3°C 95% 4.4 mph W7.1 kmh W 4.5 mph7.2 kmh 29.57 in1001.4 mb 0.00 in0.0 mm 0.00 in0.0 mm 0.82 in20.8 mm
10:48 PM 50.1°F10.1°C 53.6°F12.0°C 93% 0.8 mph W1.3 kmh W 0.8 mph1.3 kmh 29.58 in1001.7 mb 0.00 in0.0 mm 0.00 in0.0 mm 0.84 in21.3 mm
10:51 PM 50.0°F10.0°C 54.1°F12.3°C 95% 5.5 mph NNW8.9 kmh NNW 5.6 mph9.0 kmh 29.57 in1001.4 mb 0.00 in0.0 mm 0.00 in0.0 mm 0.84 in21.3 mm
10:54 PM 50.0°F10.0°C 54.0°F12.2°C 94% 1.9 mph W3.1 kmh W 1.9 mph3.1 kmh 29.57 in1001.4 mb 0.00 in0.0 mm 0.00 in0.0 mm 0.84 in21.3 mm
10:57 PM 50.0°F10.0°C 54.0°F12.2°C 94% 2.0 mph W3.2 kmh W 2.0 mph3.2 kmh 29.57 in1001.4 mb 0.00 in0.0 mm 0.00 in0.0 mm 0.84 in21.3 mm
11:00 PM 50.1°F10.1°C 53.9°F12.2°C 94% 0.7 mph WNW1.1 kmh WNW 0.8 mph1.3 kmh 29.57 in1001.4 mb 0.00 in0.0 mm 0.00 in0.0 mm 0.84 in21.3 mm
11:03 PM 50.0°F10.0°C 54.2°F12.3°C 94% 1.6 mph NNW2.6 kmh NNW 1.6 mph2.6 kmh 29.58 in1001.7 mb 0.00 in0.0 mm 0.00 in0.0 mm 0.84 in21.3 mm
11:06 PM 50.1°F10.1°C 54.1°F12.3°C 94% 2.7 mph NW4.3 kmh NW 2.9 mph4.7 kmh 29.57 in1001.4 mb 0.00 in0.0 mm 0.00 in0.0 mm 0.84 in21.3 mm
11:09 PM 50.2°F10.1°C 54.0°F12.2°C 94% 2.8 mph W4.5 kmh W 2.8 mph4.5 kmh 29.57 in1001.4 mb 0.00 in0.0 mm 0.00 in0.0 mm 0.84 in21.3 mm
11:12 PM 50.2°F10.1°C 54.3°F12.4°C 95% 2.7 mph SW4.3 kmh SW 2.9 mph4.7 kmh 29.56 in1001.0 mb 0.00 in0.0 mm 0.00 in0.0 mm 0.84 in21.3 mm
11:15 PM 50.2°F10.1°C 54.1°F12.3°C 94% 5.2 mph W8.4 kmh W 5.2 mph8.4 kmh 29.57 in1001.4 mb 0.00 in0.0 mm 0.00 in0.0 mm 0.84 in21.3 mm
11:18 PM 50.2°F10.1°C 54.4°F12.4°C 94% 7.6 mph W12.2 kmh W 7.6 mph12.2 kmh 29.56 in1001.0 mb 0.00 in0.0 mm 0.00 in0.0 mm 0.84 in21.3 mm
11:24 PM 50.2°F10.1°C 54.4°F12.4°C 94% 2.3 mph WNW3.7 kmh WNW 2.4 mph3.9 kmh 29.57 in1001.4 mb 0.00 in0.0 mm 0.00 in0.0 mm 0.84 in21.3 mm
11:27 PM 50.2°F10.1°C 54.6°F12.6°C 94% 3.2 mph W5.1 kmh W 3.2 mph5.1 kmh 29.56 in1001.0 mb 0.00 in0.0 mm 0.00 in0.0 mm 0.84 in21.3 mm
11:30 PM 50.2°F10.1°C 54.0°F12.2°C 94% 5.6 mph WNW9.0 kmh WNW 5.6 mph9.0 kmh 29.57 in1001.4 mb 0.00 in0.0 mm 0.00 in0.0 mm 0.84 in21.3 mm
11:36 PM 50.3°F10.2°C 54.2°F12.3°C 95% 10.1 mph W16.3 kmh W 10.1 mph16.3 kmh 29.57 in1001.4 mb 0.00 in0.0 mm 0.00 in0.0 mm 0.84 in21.3 mm
11:39 PM 50.2°F10.1°C 54.3°F12.4°C 94% 2.4 mph NNW3.9 kmh NNW 2.4 mph3.9 kmh 29.57 in1001.4 mb 0.00 in0.0 mm 0.00 in0.0 mm 0.84 in21.3 mm
11:42 PM 50.3°F10.2°C 54.1°F12.3°C 94% 2.0 mph WNW3.2 kmh WNW 2.0 mph3.2 kmh 29.57 in1001.4 mb 0.00 in0.0 mm 0.00 in0.0 mm 0.84 in21.3 mm
11:45 PM 50.3°F10.2°C 54.0°F12.2°C 93% 4.4 mph NNW7.1 kmh NNW 4.4 mph7.1 kmh 29.57 in1001.4 mb 0.00 in0.0 mm 0.00 in0.0 mm 0.84 in21.3 mm
11:48 PM 50.2°F10.1°C 53.9°F12.2°C 93% 1.2 mph WNW1.9 kmh WNW 1.2 mph1.9 kmh 29.56 in1001.0 mb 0.00 in0.0 mm 0.00 in0.0 mm 0.84 in21.3 mm
11:51 PM 50.3°F10.2°C 54.4°F12.4°C 95% 1.1 mph W1.8 kmh W 1.2 mph1.9 kmh 29.56 in1001.0 mb 0.00 in0.0 mm 0.00 in0.0 mm 0.84 in21.3 mm
11:54 PM 50.2°F10.1°C 54.5°F12.5°C 94% 4.3 mph W6.9 kmh W 4.3 mph6.9 kmh 29.56 in1001.0 mb 0.00 in0.0 mm 0.00 in0.0 mm 0.84 in21.3 mm
11:57 PM 50.3°F10.2°C 54.2°F12.3°C 94% 5.7 mph W9.2 kmh W 5.7 mph9.2 kmh 29.56 in1001.0 mb 0.00 in0.0 mm 0.00 in0.0 mm 0.84 in21.3 mm